Wetterdaten: aktuell Samstag, 25.05.2019 11:58
Datum Zeit Temp. Aussen Temp. o. S. +5cm Feuchte Auss Luftdruck Regen Sonnenschein Regendauer Solar Windben Empfang
25.05.2019 11:58 19,5 C 23,3 C 22,8 C 60 % 1018,2 hPa 0,0 l/m 2 min 0 min 610 W/m 6,4 km/h (2 Bft) 95,74 %
25.05.2019 11:56 19,6 C 23,3 C 22,8 C 60 % 1018,2 hPa 0,0 l/m 2 min 0 min 602 W/m 6,4 km/h (2 Bft) 97,87 %
25.05.2019 11:54 19,6 C 23,9 C 22,8 C 62 % 1018,1 hPa 0,0 l/m 2 min 0 min 635 W/m 6,4 km/h (2 Bft) 95,74 %
25.05.2019 11:52 19,6 C 24,4 C 23,9 C 63 % 1018,1 hPa 0,0 l/m 2 min 0 min 654 W/m 6,4 km/h (2 Bft) 97,87 %
25.05.2019 11:50 19,6 C 23,3 C 23,3 C 61 % 1018,2 hPa 0,0 l/m 2 min 0 min 566 W/m 9,7 km/h (2 Bft) 97,83 %
25.05.2019 11:48 19,6 C 25,0 C 24,4 C 62 % 1018,1 hPa 0,0 l/m 2 min 0 min 768 W/m 6,4 km/h (2 Bft) 97,87 %
25.05.2019 11:46 19,6 C 26,1 C 25,6 C 64 % 1018,2 hPa 0,0 l/m 2 min 0 min 821 W/m 6,4 km/h (2 Bft) 97,87 %
25.05.2019 11:44 19,5 C 27,8 C 27,2 C 63 % 1018,1 hPa 0,0 l/m 2 min 0 min 878 W/m 9,7 km/h (2 Bft) 95,74 %
25.05.2019 11:42 19,4 C 27,2 C 27,2 C 63 % 1018,0 hPa 0,0 l/m 2 min 0 min 935 W/m 9,7 km/h (2 Bft) 95,74 %
25.05.2019 11:40 19,3 C 27,2 C 27,2 C 62 % 1017,9 hPa 0,0 l/m 2 min 0 min 972 W/m 19,3 km/h (3 Bft) 97,87 %
25.05.2019 11:38 19,3 C 28,3 C 27,2 C 63 % 1018,0 hPa 0,0 l/m 2 min 0 min 994 W/m 3,2 km/h (1 Bft) 100,00 %
25.05.2019 11:36 19,2 C 27,8 C 27,2 C 62 % 1018,0 hPa 0,0 l/m 2 min 0 min 1009 W/m 6,4 km/h (2 Bft) 96,55 %
25.05.2019 11:34 19,1 C 27,2 C 26,7 C 64 % 1018,1 hPa 0,0 l/m 2 min 0 min 935 W/m 6,4 km/h (2 Bft) 97,87 %
25.05.2019 11:32 19,0 C 27,2 C 27,2 C 66 % 1018,1 hPa 0,0 l/m 2 min 0 min 885 W/m 6,4 km/h (2 Bft) 97,87 %
25.05.2019 11:30 18,9 C 26,7 C 26,7 C 66 % 1018,1 hPa 0,0 l/m 2 min 0 min 873 W/m 9,7 km/h (2 Bft) 97,87 %
25.05.2019 11:28 18,8 C 26,1 C 26,1 C 67 % 1018,2 hPa 0,0 l/m 2 min 0 min 893 W/m 9,7 km/h (2 Bft) 97,87 %
25.05.2019 11:26 18,7 C 25,0 C 24,4 C 67 % 1018,2 hPa 0,0 l/m 2 min 0 min 879 W/m 9,7 km/h (2 Bft) 97,83 %
25.05.2019 11:24 18,6 C 23,3 C 23,3 C 66 % 1018,1 hPa 0,0 l/m 2 min 0 min 664 W/m 12,9 km/h (3 Bft) 97,87 %
25.05.2019 11:22 18,6 C 21,7 C 21,7 C 64 % 1018,1 hPa 0,0 l/m 2 min 0 min 481 W/m 9,7 km/h (2 Bft) 100,00 %
25.05.2019 11:20 18,7 C 22,2 C 21,7 C 63 % 1018,1 hPa 0,0 l/m 2 min 0 min 670 W/m 9,7 km/h (2 Bft) 100,00 %
25.05.2019 11:18 18,7 C 22,8 C 21,7 C 65 % 1018,1 hPa 0,0 l/m 2 min 0 min 379 W/m 6,4 km/h (2 Bft) 100,00 %
25.05.2019 11:16 18,7 C 23,9 C 22,8 C 65 % 1018,2 hPa 0,0 l/m 2 min 0 min 420 W/m 6,4 km/h (2 Bft) 97,87 %
25.05.2019 11:14 18,7 C 25,0 C 23,9 C 66 % 1018,2 hPa 0,0 l/m 2 min 0 min 378 W/m 6,4 km/h (2 Bft) 100,00 %
25.05.2019 11:12 18,6 C 26,7 C 26,1 C 65 % 1018,1 hPa 0,0 l/m 2 min 0 min 691 W/m 6,4 km/h (2 Bft) 100,00 %
25.05.2019 11:10 18,5 C 28,9 C 27,8 C 66 % 1018,1 hPa 0,0 l/m 2 min 0 min 754 W/m 9,7 km/h (2 Bft) 100,00 %
25.05.2019 11:08 18,3 C 28,9 C 27,8 C 67 % 1018,1 hPa 0,0 l/m 2 min 0 min 1043 W/m 9,7 km/h (2 Bft) 100,00 %
25.05.2019 11:06 18,2 C 27,2 C 26,7 C 68 % 1018,0 hPa 0,0 l/m 2 min 0 min 1039 W/m 6,4 km/h (2 Bft) 96,61 %
25.05.2019 11:04 18,1 C 25,6 C 25,6 C 69 % 1018,1 hPa 0,0 l/m 2 min 0 min 1030 W/m 3,2 km/h (1 Bft) 97,83 %
25.05.2019 11:02 18,0 C 22,8 C 23,3 C 68 % 1018,1 hPa 0,0 l/m 2 min 0 min 465 W/m 6,4 km/h (2 Bft) 97,87 %
25.05.2019 11:00 17,9 C 22,8 C 22,8 C 70 % 1018,1 hPa 0,0 l/m 0 min 0 min 284 W/m 6,4 km/h (2 Bft) 97,87 %
25.05.2019 10:58 17,8 C 25,0 C 24,4 C 70 % 1018,1 hPa 0,0 l/m 2 min 0 min 515 W/m 6,4 km/h (2 Bft) 97,87 %
25.05.2019 10:56 17,6 C 26,7 C 25,6 C 70 % 1018,1 hPa 0,0 l/m 2 min 0 min 896 W/m 6,4 km/h (2 Bft) 97,87 %
25.05.2019 10:54 17,4 C 27,2 C 26,1 C 71 % 1018,1 hPa 0,0 l/m 2 min 0 min 729 W/m 9,7 km/h (2 Bft) 97,87 %
25.05.2019 10:52 17,2 C 27,2 C 26,7 C 73 % 1018,1 hPa 0,0 l/m 2 min 0 min 461 W/m 3,2 km/h (1 Bft) 93,48 %
25.05.2019 10:50 16,9 C 27,2 C 26,1 C 74 % 1018,2 hPa 0,0 l/m 2 min 0 min 980 W/m 6,4 km/h (2 Bft) 97,87 %
25.05.2019 10:48 16,6 C 27,2 C 26,1 C 73 % 1018,1 hPa 0,0 l/m 2 min 0 min 981 W/m 9,7 km/h (2 Bft) 97,87 %
25.05.2019 10:46 16,3 C 26,1 C 24,4 C 71 % 1018,0 hPa 0,0 l/m 2 min 0 min 948 W/m 9,7 km/h (2 Bft) 97,87 %
25.05.2019 10:44 16,1 C 23,3 C 22,8 C 71 % 1018,0 hPa 0,0 l/m 2 min 0 min 799 W/m 9,7 km/h (2 Bft) 93,62 %
25.05.2019 10:42 16,1 C 22,8 C 22,8 C 73 % 1018,1 hPa 0,0 l/m 2 min 0 min 837 W/m 9,7 km/h (2 Bft) 97,87 %
25.05.2019 10:40 15,9 C 23,3 C 21,7 C 76 % 1018,0 hPa 0,0 l/m 2 min 0 min 693 W/m 6,4 km/h (2 Bft) 97,83 %
25.05.2019 10:38 15,8 C 21,1 C 20,6 C 74 % 1018,1 hPa 0,0 l/m 0 min 0 min 301 W/m 6,4 km/h (2 Bft) 100,00 %
25.05.2019 10:36 15,7 C 19,4 C 19,4 C 73 % 1018,0 hPa 0,0 l/m 0 min 0 min 332 W/m 6,4 km/h (2 Bft) 94,83 %
25.05.2019 10:34 15,7 C 21,1 C 21,1 C 74 % 1018,1 hPa 0,0 l/m 2 min 0 min 339 W/m 9,7 km/h (2 Bft) 97,87 %
25.05.2019 10:32 15,6 C 21,1 C 20,0 C 74 % 1018,1 hPa 0,0 l/m 2 min 0 min 339 W/m 6,4 km/h (2 Bft) 95,74 %
25.05.2019 10:30 15,6 C 18,9 C 17,8 C 75 % 1018,1 hPa 0,0 l/m 0 min 0 min 300 W/m 6,4 km/h (2 Bft) 95,74 %
25.05.2019 10:28 15,5 C 18,9 C 17,8 C 74 % 1018,0 hPa 0,0 l/m 2 min 0 min 480 W/m 6,4 km/h (2 Bft) 95,65 %
25.05.2019 10:26 15,4 C 19,4 C 18,3 C 73 % 1018,1 hPa 0,0 l/m 2 min 0 min 585 W/m 6,4 km/h (2 Bft) 95,74 %
25.05.2019 10:24 15,4 C 18,9 C 17,8 C 74 % 1018,0 hPa 0,0 l/m 2 min 0 min 393 W/m 6,4 km/h (2 Bft) 95,74 %
25.05.2019 10:22 15,3 C 18,9 C 17,8 C 74 % 1018,0 hPa 0,0 l/m 2 min 0 min 354 W/m 6,4 km/h (2 Bft) 95,74 %
25.05.2019 10:20 15,3 C 20,0 C 18,9 C 76 % 1018,1 hPa 0,0 l/m 0 min 0 min 306 W/m 6,4 km/h (2 Bft) 95,74 %
25.05.2019 10:18 15,2 C 18,9 C 17,8 C 76 % 1018,0 hPa 0,0 l/m 0 min 0 min 301 W/m 9,7 km/h (2 Bft) 95,74 %
25.05.2019 10:16 15,2 C 17,8 C 17,2 C 76 % 1018,1 hPa 0,0 l/m 0 min 0 min 287 W/m 6,4 km/h (2 Bft) 95,65 %
25.05.2019 10:14 15,1 C 17,8 C 17,2 C 75 % 1018,1 hPa 0,0 l/m 0 min 0 min 260 W/m 6,4 km/h (2 Bft) 95,74 %
25.05.2019 10:12 15,1 C 18,3 C 17,8 C 76 % 1018,0 hPa 0,0 l/m 2 min 0 min 327 W/m 6,4 km/h (2 Bft) 93,62 %
25.05.2019 10:10 14,9 C 18,3 C 18,3 C 75 % 1018,0 hPa 0,0 l/m 2 min 0 min 318 W/m 6,4 km/h (2 Bft) 95,74 %
25.05.2019 10:08 14,9 C 18,9 C 18,3 C 75 % 1018,0 hPa 0,0 l/m 0 min 0 min 301 W/m 9,7 km/h (2 Bft) 97,14 %
25.05.2019 10:06 14,8 C 18,9 C 18,3 C 75 % 1017,9 hPa 0,0 l/m 2 min 0 min 364 W/m 6,4 km/h (2 Bft) 94,92 %
25.05.2019 10:04 14,7 C 20,0 C 20,6 C 76 % 1017,9 hPa 0,0 l/m 2 min 0 min 694 W/m 9,7 km/h (2 Bft) 95,65 %
25.05.2019 10:02 14,6 C 21,7 C 21,7 C 78 % 1017,9 hPa 0,0 l/m 2 min 0 min 694 W/m 16,1 km/h (3 Bft) 93,62 %
25.05.2019 10:00 14,4 C 21,7 C 21,1 C 78 % 1018,0 hPa 0,0 l/m 2 min 0 min 644 W/m 6,4 km/h (2 Bft) 93,62 %
25.05.2019 09:58 14,2 C 20,6 C 19,4 C 78 % 1018,0 hPa 0,0 l/m 2 min 0 min 527 W/m 3,2 km/h (1 Bft) 95,74 %
25.05.2019 09:56 14,2 C 17,8 C 16,7 C 78 % 1018,1 hPa 0,0 l/m 0 min 0 min 272 W/m 6,4 km/h (2 Bft) 95,74 %
25.05.2019 09:54 14,2 C 17,2 C 16,1 C 78 % 1018,0 hPa 0,0 l/m 0 min 0 min 179 W/m 3,2 km/h (1 Bft) 95,65 %
25.05.2019 09:52 14,2 C 17,2 C 16,1 C 80 % 1018,1 hPa 0,0 l/m 0 min 0 min 171 W/m 3,2 km/h (1 Bft) 95,74 %
25.05.2019 09:50 14,2 C 17,8 C 16,7 C 80 % 1018,1 hPa 0,0 l/m 0 min 0 min 201 W/m 3,2 km/h (1 Bft) 97,87 %
25.05.2019 09:48 14,0 C 18,3 C 17,2 C 80 % 1018,1 hPa 0,0 l/m 0 min 0 min 247 W/m 0,0 km/h (0 Bft) 95,74 %
25.05.2019 09:46 13,9 C 18,3 C 17,2 C 80 % 1018,1 hPa 0,0 l/m 2 min 0 min 295 W/m 3,2 km/h (1 Bft) 93,62 %
25.05.2019 09:44 13,8 C 18,3 C 17,2 C 80 % 1018,1 hPa 0,0 l/m 0 min 0 min 281 W/m 6,4 km/h (2 Bft) 97,87 %
25.05.2019 09:42 13,7 C 17,8 C 16,7 C 80 % 1018,2 hPa 0,0 l/m 0 min 0 min 260 W/m 3,2 km/h (1 Bft) 93,48 %
25.05.2019 09:40 13,7 C 17,8 C 16,7 C 81 % 1018,1 hPa 0,0 l/m 0 min 0 min 285 W/m 3,2 km/h (1 Bft) 93,62 %
25.05.2019 09:38 13,6 C 17,8 C 16,7 C 81 % 1018,1 hPa 0,0 l/m 0 min 0 min 246 W/m 6,4 km/h (2 Bft) 100,00 %
25.05.2019 09:36 13,6 C 17,2 C 16,1 C 81 % 1018,2 hPa 0,0 l/m 0 min 0 min 267 W/m 9,7 km/h (2 Bft) 96,61 %
25.05.2019 09:34 13,5 C 17,2 C 16,1 C 82 % 1018,1 hPa 0,0 l/m 2 min 0 min 343 W/m 9,7 km/h (2 Bft) 97,87 %
25.05.2019 09:32 13,4 C 15,6 C 14,4 C 82 % 1018,0 hPa 0,0 l/m 0 min 0 min 257 W/m 6,4 km/h (2 Bft) 97,87 %
25.05.2019 09:30 13,4 C 14,4 C 13,3 C 82 % 1018,1 hPa 0,0 l/m 0 min 0 min 140 W/m 3,2 km/h (1 Bft) 93,48 %
25.05.2019 09:28 13,4 C 13,9 C 13,3 C 81 % 1018,0 hPa 0,0 l/m 0 min 0 min 116 W/m 6,4 km/h (2 Bft) 100,00 %
25.05.2019 09:26 13,4 C 13,9 C 13,3 C 82 % 1018,0 hPa 0,0 l/m 0 min 0 min 112 W/m 3,2 km/h (1 Bft) 97,87 %
25.05.2019 09:24 13,4 C 13,9 C 13,3 C 82 % 1018,0 hPa 0,0 l/m 0 min 0 min 115 W/m 6,4 km/h (2 Bft) 95,74 %
25.05.2019 09:22 13,4 C 14,4 C 13,9 C 84 % 1017,9 hPa 0,0 l/m 0 min 0 min 124 W/m 6,4 km/h (2 Bft) 95,74 %
25.05.2019 09:20 13,3 C 14,4 C 13,9 C 84 % 1017,9 hPa 0,0 l/m 0 min 0 min 113 W/m 6,4 km/h (2 Bft) 95,74 %
25.05.2019 09:18 13,3 C 15,0 C 14,4 C 84 % 1017,9 hPa 0,0 l/m 0 min 0 min 172 W/m 6,4 km/h (2 Bft) 95,65 %
25.05.2019 09:16 13,2 C 15,0 C 14,4 C 84 % 1018,0 hPa 0,0 l/m 0 min 0 min 168 W/m 6,4 km/h (2 Bft) 95,74 %
25.05.2019 09:14 13,2 C 14,4 C 13,9 C 85 % 1018,0 hPa 0,0 l/m 0 min 0 min 159 W/m 6,4 km/h (2 Bft) 97,87 %
25.05.2019 09:12 13,2 C 14,4 C 13,9 C 85 % 1018,0 hPa 0,0 l/m 0 min 0 min 169 W/m 6,4 km/h (2 Bft) 97,87 %
25.05.2019 09:10 13,1 C 14,4 C 13,9 C 86 % 1017,9 hPa 0,0 l/m 0 min 0 min 172 W/m 3,2 km/h (1 Bft) 95,74 %
25.05.2019 09:08 13,1 C 14,4 C 13,3 C 86 % 1018,0 hPa 0,0 l/m 0 min 0 min 160 W/m 3,2 km/h (1 Bft) 97,14 %
25.05.2019 09:06 13,1 C 13,9 C 13,3 C 87 % 1017,9 hPa 0,0 l/m 0 min 0 min 146 W/m 3,2 km/h (1 Bft) 98,28 %
25.05.2019 09:04 13,0 C 14,4 C 13,3 C 88 % 1018,0 hPa 0,0 l/m 0 min 0 min 133 W/m 6,4 km/h (2 Bft) 100,00 %
25.05.2019 09:02 13,0 C 14,4 C 13,3 C 88 % 1017,9 hPa 0,0 l/m 0 min 0 min 141 W/m 3,2 km/h (1 Bft) 100,00 %
25.05.2019 09:00 12,9 C 14,4 C 13,3 C 89 % 1017,9 hPa 0,0 l/m 0 min 0 min 142 W/m 3,2 km/h (1 Bft) 100,00 %
25.05.2019 08:58 12,9 C 14,4 C 13,9 C 89 % 1018,0 hPa 0,0 l/m 0 min 0 min 144 W/m 6,4 km/h (2 Bft) 100,00 %
25.05.2019 08:56 12,8 C 15,0 C 14,4 C 90 % 1017,9 hPa 0,0 l/m 0 min 0 min 168 W/m 6,4 km/h (2 Bft) 100,00 %
25.05.2019 08:54 12,8 C 15,6 C 14,4 C 91 % 1017,9 hPa 0,0 l/m 0 min 0 min 193 W/m 6,4 km/h (2 Bft) 97,83 %
25.05.2019 08:52 12,7 C 15,6 C 15,0 C 91 % 1017,9 hPa 0,0 l/m 0 min 0 min 210 W/m 3,2 km/h (1 Bft) 97,87 %
25.05.2019 08:50 12,6 C 16,1 C 15,0 C 92 % 1017,9 hPa 0,0 l/m 2 min 0 min 258 W/m 3,2 km/h (1 Bft) 100,00 %
25.05.2019 08:48 12,5 C 15,6 C 15,0 C 92 % 1017,9 hPa 0,0 l/m 2 min 0 min 247 W/m 9,7 km/h (2 Bft) 100,00 %
25.05.2019 08:46 12,4 C 16,1 C 14,4 C 93 % 1017,9 hPa 0,0 l/m 0 min 0 min 207 W/m 6,4 km/h (2 Bft) 100,00 %
25.05.2019 08:44 12,3 C 15,6 C 13,9 C 93 % 1017,9 hPa 0,0 l/m 0 min 0 min 192 W/m 6,4 km/h (2 Bft) 100,00 %
25.05.2019 08:42 12,2 C 15,6 C 13,9 C 93 % 1017,8 hPa 0,0 l/m 0 min 0 min 193 W/m 6,4 km/h (2 Bft) 100,00 %
25.05.2019 08:40 12,2 C 15,6 C 13,9 C 94 % 1017,9 hPa 0,0 l/m 0 min 0 min 180 W/m 6,4 km/h (2 Bft) 100,00 %
25.05.2019 08:38 12,1 C 15,6 C 13,9 C 94 % 1017,8 hPa 0,0 l/m 0 min 0 min 182 W/m 6,4 km/h (2 Bft) 100,00 %
25.05.2019 08:36 12,0 C 15,6 C 13,9 C 94 % 1017,8 hPa 0,0 l/m 0 min 0 min 187 W/m 9,7 km/h (2 Bft) 100,00 %
25.05.2019 08:34 11,9 C 15,6 C 13,3 C 95 % 1017,7 hPa 0,0 l/m 0 min 0 min 171 W/m 6,4 km/h (2 Bft) 100,00 %
25.05.2019 08:32 11,8 C 15,0 C 13,3 C 95 % 1017,7 hPa 0,0 l/m 0 min 0 min 162 W/m 6,4 km/h (2 Bft) 100,00 %
25.05.2019 08:30 11,7 C 15,6 C 13,3 C 95 % 1017,7 hPa 0,0 l/m 0 min 0 min 155 W/m 6,4 km/h (2 Bft) 100,00 %
25.05.2019 08:28 11,6 C 16,1 C 13,3 C 95 % 1017,7 hPa 0,0 l/m 0 min 0 min 153 W/m 6,4 km/h (2 Bft) 100,00 %
25.05.2019 08:26 11,4 C 16,7 C 13,3 C 95 % 1017,7 hPa 0,0 l/m 0 min 0 min 163 W/m 6,4 km/h (2 Bft) 100,00 %
25.05.2019 08:24 11,3 C 17,8 C 13,3 C 96 % 1017,7 hPa 0,0 l/m 0 min 0 min 169 W/m 9,7 km/h (2 Bft) 100,00 %
25.05.2019 08:22 11,1 C 18,3 C 12,8 C 95 % 1017,6 hPa 0,0 l/m 0 min 0 min 158 W/m 6,4 km/h (2 Bft) 100,00 %
25.05.2019 08:20 10,9 C 19,4 C 12,8 C 95 % 1017,6 hPa 0,0 l/m 0 min 0 min 149 W/m 6,4 km/h (2 Bft) 100,00 %
25.05.2019 08:18 10,7 C 20,0 C 12,8 C 95 % 1017,6 hPa 0,0 l/m 0 min 0 min 144 W/m 6,4 km/h (2 Bft) 100,00 %
25.05.2019 08:16 10,5 C 20,0 C 12,2 C 95 % 1017,6 hPa 0,0 l/m 0 min 0 min 146 W/m 3,2 km/h (1 Bft) 97,87 %
25.05.2019 08:14 10,3 C 20,0 C 12,2 C 95 % 1017,6 hPa 0,0 l/m 0 min 0 min 146 W/m 3,2 km/h (1 Bft) 97,87 %
25.05.2019 08:12 10,1 C 19,4 C 12,2 C 95 % 1017,6 hPa 0,0 l/m 0 min 0 min 146 W/m 9,7 km/h (2 Bft) 100,00 %
25.05.2019 08:10 9,9 C 18,9 C 11,7 C 95 % 1017,6 hPa 0,0 l/m 0 min 0 min 145 W/m 6,4 km/h (2 Bft) 100,00 %
25.05.2019 08:08 9,8 C 17,8 C 11,7 C 94 % 1017,6 hPa 0,0 l/m 0 min 0 min 144 W/m 3,2 km/h (1 Bft) 100,00 %
25.05.2019 08:06 9,7 C 16,1 C 11,7 C 95 % 1017,6 hPa 0,0 l/m 0 min 0 min 141 W/m 3,2 km/h (1 Bft) 100,00 %
25.05.2019 08:04 9,6 C 13,9 C 11,1 C 94 % 1017,6 hPa 0,0 l/m 0 min 0 min 139 W/m 6,4 km/h (2 Bft) 97,87 %
25.05.2019 08:02 9,4 C 12,8 C 11,1 C 94 % 1017,6 hPa 0,0 l/m 0 min 0 min 136 W/m 9,7 km/h (2 Bft) 100,00 %
25.05.2019 08:00 9,3 C 12,2 C 10,6 C 94 % 1017,5 hPa 0,0 l/m 0 min 0 min 132 W/m 0,0 km/h (0 Bft) 97,87 %
25.05.2019 07:58 9,2 C 12,2 C 10,6 C 94 % 1017,5 hPa 0,0 l/m 0 min 0 min 126 W/m 0,0 km/h (0 Bft) 95,74 %
25.05.2019 07:56 9,1 C 11,7 C 10,0 C 94 % 1017,4 hPa 0,0 l/m 0 min 0 min 119 W/m 0,0 km/h (0 Bft) 95,65 %
25.05.2019 07:54 8,9 C 11,1 C 10,0 C 94 % 1017,4 hPa 0,0 l/m 0 min 0 min 112 W/m 0,0 km/h (0 Bft) 97,87 %
25.05.2019 07:52 8,9 C 11,1 C 9,4 C 93 % 1017,4 hPa 0,0 l/m 0 min 0 min 104 W/m 0,0 km/h (0 Bft) 97,87 %
25.05.2019 07:50 8,8 C 10,6 C 9,4 C 93 % 1017,4 hPa 0,0 l/m 0 min 0 min 98 W/m 0,0 km/h (0 Bft) 95,74 %
25.05.2019 07:48 8,7 C 10,6 C 9,4 C 93 % 1017,4 hPa 0,0 l/m 0 min 0 min 92 W/m 0,0 km/h (0 Bft) 97,87 %
25.05.2019 07:46 8,7 C 10,0 C 8,9 C 93 % 1017,4 hPa 0,0 l/m 0 min 0 min 86 W/m 3,2 km/h (1 Bft) 97,87 %
25.05.2019 07:44 8,6 C 10,0 C 8,9 C 93 % 1017,4 hPa 0,0 l/m 0 min 0 min 81 W/m 6,4 km/h (2 Bft) 97,83 %
25.05.2019 07:42 8,5 C 10,0 C 8,9 C 93 % 1017,4 hPa 0,0 l/m 0 min 0 min 77 W/m 0,0 km/h (0 Bft) 97,87 %
25.05.2019 07:40 8,4 C 9,4 C 8,9 C 93 % 1017,4 hPa 0,0 l/m 0 min 0 min 71 W/m 0,0 km/h (0 Bft) 95,74 %
25.05.2019 07:38 8,4 C 9,4 C 8,3 C 93 % 1017,4 hPa 0,0 l/m 0 min 0 min 67 W/m 3,2 km/h (1 Bft) 97,14 %
25.05.2019 07:36 8,3 C 9,4 C 8,3 C 92 % 1017,4 hPa 0,0 l/m 0 min 0 min 63 W/m 3,2 km/h (1 Bft) 98,31 %
25.05.2019 07:34 8,3 C 9,4 C 8,3 C 92 % 1017,4 hPa 0,0 l/m 0 min 0 min 58 W/m 0,0 km/h (0 Bft) 97,87 %
25.05.2019 07:32 8,3 C 8,9 C 8,3 C 92 % 1017,5 hPa 0,0 l/m 0 min 0 min 54 W/m 3,2 km/h (1 Bft) 95,65 %
25.05.2019 07:30 8,2 C 8,9 C 8,3 C 92 % 1017,4 hPa 0,0 l/m 0 min 0 min 51 W/m 3,2 km/h (1 Bft) 95,74 %
25.05.2019 07:28 8,2 C 8,9 C 7,8 C 92 % 1017,5 hPa 0,0 l/m 0 min 0 min 48 W/m 3,2 km/h (1 Bft) 93,62 %
25.05.2019 07:26 8,1 C 8,9 C 7,8 C 92 % 1017,4 hPa 0,0 l/m 0 min 0 min 46 W/m 0,0 km/h (0 Bft) 95,74 %
25.05.2019 07:24 8,1 C 8,3 C 7,8 C 92 % 1017,4 hPa 0,0 l/m 0 min 0 min 43 W/m 6,4 km/h (2 Bft) 95,74 %
25.05.2019 07:22 8,0 C 8,3 C 7,8 C 92 % 1017,4 hPa 0,0 l/m 0 min 0 min 42 W/m 3,2 km/h (1 Bft) 93,62 %
25.05.2019 07:20 7,9 C 8,3 C 7,8 C 91 % 1017,4 hPa 0,0 l/m 0 min 0 min 40 W/m 3,2 km/h (1 Bft) 95,65 %
25.05.2019 07:18 7,9 C 8,3 C 7,8 C 91 % 1017,5 hPa 0,0 l/m 0 min 0 min 40 W/m 3,2 km/h (1 Bft) 93,62 %
25.05.2019 07:16 7,9 C 8,3 C 7,8 C 91 % 1017,5 hPa 0,0 l/m 0 min 0 min 38 W/m 0,0 km/h (0 Bft) 93,62 %
25.05.2019 07:14 7,9 C 8,3 C 7,8 C 91 % 1017,5 hPa 0,0 l/m 0 min 0 min 37 W/m 3,2 km/h (1 Bft) 95,74 %
25.05.2019 07:12 7,8 C 8,3 C 7,8 C 91 % 1017,5 hPa 0,0 l/m 0 min 0 min 39 W/m 0,0 km/h (0 Bft) 93,62 %
25.05.2019 07:10 7,8 C 8,3 C 7,8 C 91 % 1017,5 hPa 0,0 l/m 0 min 0 min 40 W/m 0,0 km/h (0 Bft) 93,62 %
25.05.2019 07:08 7,8 C 8,3 C 7,8 C 91 % 1017,5 hPa 0,0 l/m 0 min 0 min 42 W/m 3,2 km/h (1 Bft) 88,57 %
25.05.2019 07:06 7,7 C 8,3 C 7,8 C 90 % 1017,5 hPa 0,0 l/m 0 min 0 min 45 W/m 3,2 km/h (1 Bft) 93,10 %
25.05.2019 07:04 7,7 C 8,3 C 7,8 C 90 % 1017,5 hPa 0,0 l/m 0 min 0 min 48 W/m 3,2 km/h (1 Bft) 93,62 %
25.05.2019 07:02 7,7 C 8,3 C 7,8 C 90 % 1017,4 hPa 0,0 l/m 0 min 0 min 52 W/m 0,0 km/h (0 Bft) 95,74 %
25.05.2019 07:00 7,7 C 7,8 C 7,2 C 90 % 1017,5 hPa 0,0 l/m 0 min 0 min 50 W/m 0,0 km/h (0 Bft) 95,74 %
25.05.2019 06:58 7,7 C 7,8 C 7,2 C 90 % 1017,4 hPa 0,0 l/m 0 min 0 min 50 W/m 0,0 km/h (0 Bft) 93,48 %
25.05.2019 06:56 7,7 C 7,8 C 7,2 C 89 % 1017,5 hPa 0,0 l/m 0 min 0 min 49 W/m 0,0 km/h (0 Bft) 91,49 %
25.05.2019 06:54 7,7 C 7,2 C 6,7 C 89 % 1017,4 hPa 0,0 l/m 0 min 0 min 45 W/m 0,0 km/h (0 Bft) 97,87 %
25.05.2019 06:52 7,7 C 7,2 C 6,7 C 89 % 1017,5 hPa 0,0 l/m 0 min 0 min 35 W/m 0,0 km/h (0 Bft) 95,74 %
25.05.2019 06:50 7,7 C 6,7 C 6,7 C 89 % 1017,4 hPa 0,0 l/m 0 min 0 min 22 W/m 0,0 km/h (0 Bft) 95,74 %
25.05.2019 06:48 7,7 C 6,7 C 6,7 C 89 % 1017,4 hPa 0,0 l/m 0 min 0 min 19 W/m 0,0 km/h (0 Bft) 95,74 %
25.05.2019 06:46 7,7 C 6,7 C 6,7 C 89 % 1017,4 hPa 0,0 l/m 0 min 0 min 18 W/m 0,0 km/h (0 Bft) 93,48 %
25.05.2019 06:44 7,7 C 6,7 C 6,7 C 89 % 1017,4 hPa 0,0 l/m 0 min 0 min 16 W/m 0,0 km/h (0 Bft) 95,74 %
25.05.2019 06:42 7,7 C 6,7 C 6,7 C 89 % 1017,4 hPa 0,0 l/m 0 min 0 min 15 W/m 6,4 km/h (2 Bft) 100,00 %
25.05.2019 06:40 7,7 C 6,7 C 6,7 C 89 % 1017,4 hPa 0,0 l/m 0 min 0 min 14 W/m 3,2 km/h (1 Bft) 100,00 %
25.05.2019 06:38 7,7 C 6,7 C 6,7 C 89 % 1017,4 hPa 0,0 l/m 0 min 0 min 14 W/m 3,2 km/h (1 Bft) 100,00 %
25.05.2019 06:36 7,7 C 6,7 C 6,7 C 89 % 1017,3 hPa 0,0 l/m 0 min 0 min 14 W/m 3,2 km/h (1 Bft) 98,31 %
25.05.2019 06:34 7,7 C 6,7 C 6,7 C 89 % 1017,3 hPa 0,0 l/m 0 min 0 min 14 W/m 0,0 km/h (0 Bft) 97,83 %
25.05.2019 06:32 7,7 C 6,7 C 6,7 C 88 % 1017,3 hPa 0,0 l/m 0 min 0 min 12 W/m 0,0 km/h (0 Bft) 100,00 %
25.05.2019 06:30 7,7 C 6,7 C 6,7 C 88 % 1017,3 hPa 0,0 l/m 0 min 0 min 12 W/m 0,0 km/h (0 Bft) 100,00 %
25.05.2019 06:28 7,7 C 6,7 C 6,7 C 88 % 1017,3 hPa 0,0 l/m 0 min 0 min 12 W/m 3,2 km/h (1 Bft) 100,00 %
25.05.2019 06:26 7,7 C 6,7 C 6,7 C 88 % 1017,2 hPa 0,0 l/m 0 min 0 min 12 W/m 3,2 km/h (1 Bft) 100,00 %
25.05.2019 06:24 7,7 C 6,7 C 6,7 C 88 % 1017,2 hPa 0,0 l/m 0 min 0 min 12 W/m 3,2 km/h (1 Bft) 100,00 %
25.05.2019 06:22 7,7 C 6,7 C 6,7 C 88 % 1017,3 hPa 0,0 l/m 0 min 0 min 14 W/m 3,2 km/h (1 Bft) 97,83 %
25.05.2019 06:20 7,7 C 6,7 C 6,7 C 88 % 1017,2 hPa 0,0 l/m 0 min 0 min 12 W/m 0,0 km/h (0 Bft) 100,00 %
25.05.2019 06:18 7,7 C 6,7 C 6,7 C 88 % 1017,2 hPa 0,0 l/m 0 min 0 min 12 W/m 3,2 km/h (1 Bft) 100,00 %
25.05.2019 06:16 7,8 C 6,7 C 6,7 C 88 % 1017,2 hPa 0,0 l/m 0 min 0 min 11 W/m 0,0 km/h (0 Bft) 95,74 %
25.05.2019 06:14 7,7 C 6,7 C 6,7 C 88 % 1017,2 hPa 0,0 l/m 0 min 0 min 11 W/m 3,2 km/h (1 Bft) 97,87 %
25.05.2019 06:12 7,8 C 6,7 C 6,7 C 87 % 1017,2 hPa 0,0 l/m 0 min 0 min 11 W/m 0,0 km/h (0 Bft) 100,00 %
25.05.2019 06:10 7,8 C 6,7 C 6,7 C 87 % 1017,1 hPa 0,0 l/m 0 min 0 min 10 W/m 3,2 km/h (1 Bft) 100,00 %
25.05.2019 06:08 7,8 C 6,7 C 6,7 C 87 % 1017,2 hPa 0,0 l/m 0 min 0 min 9 W/m 0,0 km/h (0 Bft) 100,00 %
25.05.2019 06:04 7,8 C 6,7 C 6,7 C 87 % 1017,2 hPa 0,0 l/m 0 min 0 min 9 W/m 0,0 km/h (0 Bft) 100,00 %
25.05.2019 06:02 7,8 C 6,7 C 6,1 C 87 % 1017,1 hPa 0,0 l/m 0 min 0 min 9 W/m 3,2 km/h (1 Bft) 100,00 %
25.05.2019 06:00 7,8 C 6,7 C 6,1 C 87 % 1017,1 hPa 0,0 l/m 0 min 0 min 9 W/m 0,0 km/h (0 Bft) 100,00 %
25.05.2019 05:58 7,8 C 6,7 C 6,1 C 87 % 1017,1 hPa 0,0 l/m 0 min 0 min 7 W/m 0,0 km/h (0 Bft) 100,00 %
25.05.2019 05:56 7,9 C 6,7 C 6,1 C 86 % 1017,1 hPa 0,0 l/m 0 min 0 min 7 W/m 0,0 km/h (0 Bft) 97,87 %
25.05.2019 05:54 7,9 C 6,7 C 6,1 C 86 % 1017,1 hPa 0,0 l/m 0 min 0 min 7 W/m 0,0 km/h (0 Bft) 100,00 %
25.05.2019 05:52 7,9 C 6,7 C 6,1 C 86 % 1017,1 hPa 0,0 l/m 0 min 0 min 7 W/m 0,0 km/h (0 Bft) 97,87 %
25.05.2019 05:50 7,9 C 6,7 C 6,1 C 86 % 1017,0 hPa 0,0 l/m 0 min 0 min 6 W/m 0,0 km/h (0 Bft) 100,00 %
25.05.2019 05:48 7,9 C 6,7 C 6,1 C 86 % 1017,0 hPa 0,0 l/m 0 min 0 min 5 W/m 0,0 km/h (0 Bft) 100,00 %
25.05.2019 05:46 7,9 C 6,7 C 6,1 C 86 % 1016,9 hPa 0,0 l/m 0 min 0 min 5 W/m 0,0 km/h (0 Bft) 100,00 %
25.05.2019 05:44 7,9 C 6,7 C 6,1 C 86 % 1017,0 hPa 0,0 l/m 0 min 0 min 5 W/m 0,0 km/h (0 Bft) 100,00 %
25.05.2019 05:42 8,0 C 6,7 C 6,1 C 86 % 1017,0 hPa 0,0 l/m 0 min 0 min 5 W/m 0,0 km/h (0 Bft) 100,00 %
25.05.2019 05:40 8,0 C 6,7 C 6,1 C 85 % 1017,0 hPa 0,0 l/m 0 min 0 min 1 W/m 0,0 km/h (0 Bft) 100,00 %
25.05.2019 05:38 8,1 C 6,7 C 6,1 C 85 % 1017,0 hPa 0,0 l/m 0 min 0 min 0 W/m 3,2 km/h (1 Bft) 100,00 %
25.05.2019 05:36 8,1 C 6,7 C 6,1 C 85 % 1017,0 hPa 0,0 l/m 0 min 0 min 0 W/m 0,0 km/h (0 Bft) 98,28 %
25.05.2019 05:34 8,1 C 6,1 C 6,1 C 85 % 1017,0 hPa 0,0 l/m 0 min 0 min 0 W/m 0,0 km/h (0 Bft) 100,00 %
25.05.2019 05:32 8,1 C 6,1 C 6,1 C 85 % 1016,9 hPa 0,0 l/m 0 min 0 min 0 W/m 0,0 km/h (0 Bft) 100,00 %
25.05.2019 05:30 8,1 C 6,7 C 6,1 C 85 % 1016,8 hPa 0,0 l/m 0 min 0 min 0 W/m 0,0 km/h (0 Bft) 100,00 %
25.05.2019 05:28 8,2 C 6,7 C 6,7 C 85 % 1016,9 hPa 0,0 l/m 0 min 0 min 0 W/m 0,0 km/h (0 Bft) 100,00 %
25.05.2019 05:26 8,2 C 6,7 C 6,7 C 85 % 1016,9 hPa 0,0 l/m 0 min 0 min 0 W/m 0,0 km/h (0 Bft) 100,00 %
25.05.2019 05:24 8,2 C 6,7 C 6,7 C 85 % 1016,8 hPa 0,0 l/m 0 min 0 min 0 W/m 0,0 km/h (0 Bft) 97,87 %
25.05.2019 05:22 8,2 C 6,7 C 6,7 C 85 % 1016,8 hPa 0,0 l/m 0 min 0 min 0 W/m 0,0 km/h (0 Bft) 97,83 %
25.05.2019 05:20 8,2 C 6,7 C 6,7 C 85 % 1016,9 hPa 0,0 l/m 0 min 0 min 0 W/m 0,0 km/h (0 Bft) 97,87 %
25.05.2019 05:18 8,3 C 6,7 C 6,7 C 85 % 1016,8 hPa 0,0 l/m 0 min 0 min 0 W/m 3,2 km/h (1 Bft) 87,50 %
25.05.2019 05:17 8,3 C 6,7 C 6,7 C 85 % 1016,8 hPa 0,0 l/m 0 min 0 min 0 W/m 0,0 km/h (0 Bft) 100,00 %
25.05.2019 05:12 8,3 C 6,7 C 6,7 C 84 % 1016,7 hPa 0,0 l/m 0 min 0 min 0 W/m 0,0 km/h (0 Bft) 100,00 %
25.05.2019 05:10 8,3 C 6,7 C 6,7 C 84 % 1016,6 hPa 0,0 l/m 0 min 0 min 0 W/m 0,0 km/h (0 Bft) 99,12 %
25.05.2019 05:05 8,4 C 6,7 C 6,7 C 83 % 1016,6 hPa 0,0 l/m 0 min 0 min 0 W/m 3,2 km/h (1 Bft) 100,00 %
25.05.2019 05:04 8,4 C 6,7 C 6,7 C 83 % 1016,6 hPa 0,0 l/m 0 min 0 min 0 W/m 3,2 km/h (1 Bft) 95,74 %
25.05.2019 05:02 8,4 C 6,7 C 6,7 C 83 % 1016,6 hPa 0,0 l/m 0 min 0 min 0 W/m 0,0 km/h (0 Bft) 97,87 %
25.05.2019 05:00 8,4 C 6,7 C 6,7 C 84 % 1016,6 hPa 0,0 l/m 0 min 0 min 0 W/m 0,0 km/h (0 Bft) 97,83 %
25.05.2019 04:58 8,4 C 6,7 C 6,7 C 83 % 1016,6 hPa 0,0 l/m 0 min 0 min 0 W/m 0,0 km/h (0 Bft) 97,87 %
25.05.2019 04:56 8,5 C 6,7 C 6,7 C 83 % 1016,5 hPa 0,0 l/m 0 min 0 min 0 W/m 0,0 km/h (0 Bft) 97,87 %
25.05.2019 04:54 8,5 C 6,7 C 6,7 C 83 % 1016,5 hPa 0,0 l/m 0 min 0 min 0 W/m 0,0 km/h (0 Bft) 95,74 %
25.05.2019 04:52 8,6 C 6,7 C 6,7 C 83 % 1016,5 hPa 0,0 l/m 0 min 0 min 0 W/m 0,0 km/h (0 Bft) 100,00 %
25.05.2019 04:50 8,6 C 6,7 C 6,7 C 83 % 1016,5 hPa 0,0 l/m 0 min 0 min 0 W/m 0,0 km/h (0 Bft) 97,87 %
25.05.2019 04:48 8,6 C 6,7 C 6,7 C 83 % 1016,5 hPa 0,0 l/m 0 min 0 min 0 W/m 3,2 km/h (1 Bft) 100,00 %
25.05.2019 04:46 8,6 C 7,2 C 6,7 C 83 % 1016,5 hPa 0,0 l/m 0 min 0 min 0 W/m 3,2 km/h (1 Bft) 97,87 %
25.05.2019 04:44 8,6 C 7,2 C 6,7 C 83 % 1016,5 hPa 0,0 l/m 0 min 0 min 0 W/m 0,0 km/h (0 Bft) 95,74 %
25.05.2019 04:42 8,7 C 7,2 C 6,7 C 83 % 1016,5 hPa 0,0 l/m 0 min 0 min 0 W/m 0,0 km/h (0 Bft) 97,87 %
25.05.2019 04:40 8,7 C 7,2 C 6,7 C 82 % 1016,6 hPa 0,0 l/m 0 min 0 min 0 W/m 0,0 km/h (0 Bft) 100,00 %
25.05.2019 04:38 8,7 C 7,2 C 6,7 C 82 % 1016,6 hPa 0,0 l/m 0 min 0 min 0 W/m 0,0 km/h (0 Bft) 100,00 %
25.05.2019 04:36 8,7 C 7,2 C 6,7 C 82 % 1016,6 hPa 0,0 l/m 0 min 0 min 0 W/m 0,0 km/h (0 Bft) 100,00 %
25.05.2019 04:34 8,7 C 7,2 C 6,7 C 82 % 1016,5 hPa 0,0 l/m 0 min 0 min 0 W/m 0,0 km/h (0 Bft) 97,87 %
25.05.2019 04:32 8,7 C 6,7 C 6,7 C 82 % 1016,6 hPa 0,0 l/m 0 min 0 min 0 W/m 0,0 km/h (0 Bft) 97,87 %
25.05.2019 04:30 8,8 C 6,7 C 6,7 C 82 % 1016,6 hPa 0,0 l/m 0 min 0 min 0 W/m 0,0 km/h (0 Bft) 100,00 %
25.05.2019 04:28 8,8 C 7,2 C 6,7 C 81 % 1016,6 hPa 0,0 l/m 0 min 0 min 0 W/m 0,0 km/h (0 Bft) 100,00 %
25.05.2019 04:26 8,8 C 7,2 C 6,7 C 81 % 1016,5 hPa 0,0 l/m 0 min 0 min 0 W/m 0,0 km/h (0 Bft) 100,00 %
25.05.2019 04:24 8,8 C 7,2 C 6,7 C 81 % 1016,5 hPa 0,0 l/m 0 min 0 min 0 W/m 0,0 km/h (0 Bft) 100,00 %
25.05.2019 04:22 8,8 C 7,2 C 6,7 C 81 % 1016,5 hPa 0,0 l/m 0 min 0 min 0 W/m 0,0 km/h (0 Bft) 97,87 %
25.05.2019 04:20 8,9 C 7,2 C 7,2 C 81 % 1016,6 hPa 0,0 l/m 0 min 0 min 0 W/m 0,0 km/h (0 Bft) 100,00 %
25.05.2019 04:18 8,9 C 7,2 C 7,2 C 81 % 1016,6 hPa 0,0 l/m 0 min 0 min 0 W/m 0,0 km/h (0 Bft) 100,00 %
25.05.2019 04:16 8,9 C 7,2 C 7,2 C 80 % 1016,6 hPa 0,0 l/m 0 min 0 min 0 W/m 0,0 km/h (0 Bft) 97,87 %
25.05.2019 04:14 8,9 C 7,2 C 6,7 C 80 % 1016,6 hPa 0,0 l/m 0 min 0 min 0 W/m 0,0 km/h (0 Bft) 97,83 %
25.05.2019 04:12 9,0 C 7,2 C 6,7 C 80 % 1016,6 hPa 0,0 l/m 0 min 0 min 0 W/m 3,2 km/h (1 Bft) 100,00 %
25.05.2019 04:10 9,0 C 7,2 C 6,7 C 80 % 1016,6 hPa 0,0 l/m 0 min 0 min 0 W/m 0,0 km/h (0 Bft) 97,87 %
25.05.2019 04:08 9,1 C 7,2 C 6,7 C 79 % 1016,5 hPa 0,0 l/m 0 min 0 min 0 W/m 0,0 km/h (0 Bft) 95,74 %
25.05.2019 04:06 9,1 C 7,2 C 6,7 C 79 % 1016,5 hPa 0,0 l/m 0 min 0 min 0 W/m 0,0 km/h (0 Bft) 95,74 %
25.05.2019 04:04 9,1 C 7,2 C 6,7 C 79 % 1016,5 hPa 0,0 l/m 0 min 0 min 0 W/m 3,2 km/h (1 Bft) 93,62 %
25.05.2019 04:02 9,1 C 7,2 C 7,2 C 79 % 1016,5 hPa 0,0 l/m 0 min 0 min 0 W/m 3,2 km/h (1 Bft) 100,00 %
25.05.2019 04:00 9,2 C 7,2 C 7,2 C 78 % 1016,4 hPa 0,0 l/m 0 min 0 min 0 W/m 0,0 km/h (0 Bft) 97,87 %
25.05.2019 03:58 9,2 C 7,2 C 7,2 C 78 % 1016,5 hPa 0,0 l/m 0 min 0 min 0 W/m 3,2 km/h (1 Bft) 97,87 %
25.05.2019 03:56 9,2 C 7,2 C 7,2 C 78 % 1016,4 hPa 0,0 l/m 0 min 0 min 0 W/m 0,0 km/h (0 Bft) 95,74 %
25.05.2019 03:54 9,2 C 7,2 C 7,2 C 78 % 1016,5 hPa 0,0 l/m 0 min 0 min 0 W/m 3,2 km/h (1 Bft) 95,74 %
25.05.2019 03:52 9,3 C 7,2 C 7,2 C 77 % 1016,4 hPa 0,0 l/m 0 min 0 min 0 W/m 3,2 km/h (1 Bft) 97,87 %
25.05.2019 03:50 9,3 C 7,2 C 7,2 C 77 % 1016,3 hPa 0,0 l/m 0 min 0 min 0 W/m 0,0 km/h (0 Bft) 97,83 %
25.05.2019 03:48 9,3 C 7,2 C 7,2 C 77 % 1016,4 hPa 0,0 l/m 0 min 0 min 0 W/m 0,0 km/h (0 Bft) 95,74 %
25.05.2019 03:46 9,3 C 7,2 C 7,2 C 77 % 1016,4 hPa 0,0 l/m 0 min 0 min 0 W/m 3,2 km/h (1 Bft) 97,87 %
25.05.2019 03:44 9,4 C 7,2 C 7,2 C 77 % 1016,4 hPa 0,0 l/m 0 min 0 min 0 W/m 6,4 km/h (2 Bft) 95,74 %
25.05.2019 03:42 9,4 C 7,2 C 7,2 C 76 % 1016,4 hPa 0,0 l/m 0 min 0 min 0 W/m 6,4 km/h (2 Bft) 97,87 %
25.05.2019 03:40 9,4 C 7,2 C 7,2 C 75 % 1016,4 hPa 0,0 l/m 0 min 0 min 0 W/m 6,4 km/h (2 Bft) 95,74 %
25.05.2019 03:38 9,5 C 7,2 C 7,2 C 75 % 1016,3 hPa 0,0 l/m 0 min 0 min 0 W/m 3,2 km/h (1 Bft) 95,65 %
25.05.2019 03:36 9,5 C 7,2 C 7,2 C 75 % 1016,3 hPa 0,0 l/m 0 min 0 min 0 W/m 0,0 km/h (0 Bft) 92,00 %
25.05.2019 03:34 9,6 C 7,2 C 7,2 C 75 % 1016,3 hPa 0,0 l/m 0 min 0 min 0 W/m 0,0 km/h (0 Bft) 95,74 %
25.05.2019 03:32 9,6 C 7,8 C 7,2 C 75 % 1016,3 hPa 0,0 l/m 0 min 0 min 0 W/m 3,2 km/h (1 Bft) 93,62 %
25.05.2019 03:30 9,6 C 7,8 C 7,2 C 74 % 1016,3 hPa 0,0 l/m 0 min 0 min 0 W/m 0,0 km/h (0 Bft) 95,74 %
25.05.2019 03:28 9,6 C 7,8 C 7,2 C 74 % 1016,3 hPa 0,0 l/m 0 min 0 min 0 W/m 0,0 km/h (0 Bft) 95,65 %
25.05.2019 03:26 9,7 C 7,8 C 7,2 C 74 % 1016,2 hPa 0,0 l/m 0 min 0 min 0 W/m 0,0 km/h (0 Bft) 95,74 %
25.05.2019 03:24 9,7 C 7,8 C 7,2 C 73 % 1016,3 hPa 0,0 l/m 0 min 0 min 0 W/m 0,0 km/h (0 Bft) 91,49 %
25.05.2019 03:22 9,7 C 7,8 C 7,2 C 73 % 1016,2 hPa 0,0 l/m 0 min 0 min 0 W/m 0,0 km/h (0 Bft) 95,74 %
25.05.2019 03:20 9,8 C 7,8 C 7,2 C 73 % 1016,2 hPa 0,0 l/m 0 min 0 min 0 W/m 0,0 km/h (0 Bft) 93,62 %
25.05.2019 03:18 9,8 C 7,8 C 7,2 C 73 % 1016,2 hPa 0,0 l/m 0 min 0 min 0 W/m 0,0 km/h (0 Bft) 93,62 %
25.05.2019 03:16 9,8 C 7,8 C 7,2 C 73 % 1016,3 hPa 0,0 l/m 0 min 0 min 0 W/m 0,0 km/h (0 Bft) 89,13 %
25.05.2019 03:14 9,8 C 7,8 C 7,2 C 73 % 1016,2 hPa 0,0 l/m 0 min 0 min 0 W/m 0,0 km/h (0 Bft) 93,62 %
25.05.2019 03:12 9,9 C 7,8 C 7,2 C 72 % 1016,2 hPa 0,0 l/m 0 min 0 min 0 W/m 3,2 km/h (1 Bft) 95,74 %
25.05.2019 03:10 9,9 C 7,8 C 7,2 C 72 % 1016,2 hPa 0,0 l/m 0 min 0 min 0 W/m 0,0 km/h (0 Bft) 95,74 %
25.05.2019 03:08 9,9 C 7,8 C 7,8 C 72 % 1016,2 hPa 0,0 l/m 0 min 0 min 0 W/m 0,0 km/h (0 Bft) 95,74 %
25.05.2019 03:06 10,0 C 7,8 C 7,8 C 72 % 1016,1 hPa 0,0 l/m 0 min 0 min 0 W/m 0,0 km/h (0 Bft) 93,62 %
25.05.2019 03:04 10,0 C 7,8 C 7,8 C 72 % 1016,1 hPa 0,0 l/m 0 min 0 min 0 W/m 0,0 km/h (0 Bft) 95,65 %
25.05.2019 03:02 10,1 C 8,3 C 7,8 C 72 % 1016,2 hPa 0,0 l/m 0 min 0 min 0 W/m 0,0 km/h (0 Bft) 93,62 %
25.05.2019 03:00 10,1 C 7,8 C 7,8 C 71 % 1016,2 hPa 0,0 l/m 0 min 0 min 0 W/m 0,0 km/h (0 Bft) 97,87 %
25.05.2019 02:58 10,1 C 8,3 C 7,8 C 72 % 1016,2 hPa 0,0 l/m 0 min 0 min 0 W/m 0,0 km/h (0 Bft) 100,00 %
25.05.2019 02:56 10,2 C 8,3 C 7,8 C 71 % 1016,2 hPa 0,0 l/m 0 min 0 min 0 W/m 0,0 km/h (0 Bft) 93,62 %
25.05.2019 02:54 10,2 C 8,3 C 7,8 C 71 % 1016,3 hPa 0,0 l/m 0 min 0 min 0 W/m 0,0 km/h (0 Bft) 95,74 %
25.05.2019 02:52 10,2 C 8,3 C 7,8 C 71 % 1016,3 hPa 0,0 l/m 0 min 0 min 0 W/m 3,2 km/h (1 Bft) 95,65 %
25.05.2019 02:50 10,3 C 8,3 C 7,8 C 71 % 1016,4 hPa 0,0 l/m 0 min 0 min 0 W/m 0,0 km/h (0 Bft) 97,87 %
25.05.2019 02:48 10,3 C 8,3 C 7,8 C 70 % 1016,3 hPa 0,0 l/m 0 min 0 min 0 W/m 0,0 km/h (0 Bft) 97,87 %
25.05.2019 02:46 10,3 C 8,3 C 7,8 C 70 % 1016,3 hPa 0,0 l/m 0 min 0 min 0 W/m 3,2 km/h (1 Bft) 97,87 %
25.05.2019 02:44 10,4 C 8,3 C 7,8 C 70 % 1016,3 hPa 0,0 l/m 0 min 0 min 0 W/m 0,0 km/h (0 Bft) 97,87 %
25.05.2019 02:42 10,4 C 8,3 C 8,3 C 70 % 1016,3 hPa 0,0 l/m 0 min 0 min 0 W/m 0,0 km/h (0 Bft) 97,87 %
25.05.2019 02:40 10,4 C 8,3 C 8,3 C 70 % 1016,3 hPa 0,0 l/m 0 min 0 min 0 W/m 0,0 km/h (0 Bft) 97,83 %
25.05.2019 02:38 10,5 C 8,3 C 8,3 C 69 % 1016,4 hPa 0,0 l/m 0 min 0 min 0 W/m 0,0 km/h (0 Bft) 97,87 %
25.05.2019 02:36 10,6 C 8,3 C 8,3 C 69 % 1016,4 hPa 0,0 l/m 0 min 0 min 0 W/m 0,0 km/h (0 Bft) 97,87 %
25.05.2019 02:34 10,6 C 8,3 C 8,3 C 69 % 1016,3 hPa 0,0 l/m 0 min 0 min 0 W/m 0,0 km/h (0 Bft) 97,87 %
25.05.2019 02:32 10,6 C 8,3 C 8,3 C 69 % 1016,4 hPa 0,0 l/m 0 min 0 min 0 W/m 0,0 km/h (0 Bft) 97,87 %
25.05.2019 02:30 10,7 C 8,3 C 8,3 C 69 % 1016,4 hPa 0,0 l/m 0 min 0 min 0 W/m 0,0 km/h (0 Bft) 97,87 %
25.05.2019 02:28 10,7 C 8,3 C 8,3 C 69 % 1016,3 hPa 0,0 l/m 0 min 0 min 0 W/m 0,0 km/h (0 Bft) 97,83 %
25.05.2019 02:26 10,7 C 8,3 C 8,3 C 69 % 1016,3 hPa 0,0 l/m 0 min 0 min 0 W/m 0,0 km/h (0 Bft) 95,74 %
25.05.2019 02:24 10,8 C 8,3 C 8,3 C 68 % 1016,3 hPa 0,0 l/m 0 min 0 min 0 W/m 0,0 km/h (0 Bft) 97,87 %
25.05.2019 02:22 10,8 C 8,9 C 8,3 C 68 % 1016,3 hPa 0,0 l/m 0 min 0 min 0 W/m 0,0 km/h (0 Bft) 95,74 %
25.05.2019 02:20 10,8 C 8,9 C 8,3 C 68 % 1016,3 hPa 0,0 l/m 0 min 0 min 0 W/m 3,2 km/h (1 Bft) 97,87 %
25.05.2019 02:18 10,9 C 8,9 C 8,3 C 68 % 1016,3 hPa 0,0 l/m 0 min 0 min 0 W/m 0,0 km/h (0 Bft) 97,83 %
25.05.2019 02:16 10,9 C 8,9 C 8,3 C 68 % 1016,4 hPa 0,0 l/m 0 min 0 min 0 W/m 0,0 km/h (0 Bft) 95,74 %
25.05.2019 02:14 11,0 C 8,9 C 8,9 C 68 % 1016,3 hPa 0,0 l/m 0 min 0 min 0 W/m 6,4 km/h (2 Bft) 97,87 %
25.05.2019 02:12 11,0 C 8,9 C 8,9 C 68 % 1016,3 hPa 0,0 l/m 0 min 0 min 0 W/m 0,0 km/h (0 Bft) 97,87 %
25.05.2019 02:10 11,1 C 8,9 C 8,9 C 68 % 1016,3 hPa 0,0 l/m 0 min 0 min 0 W/m 3,2 km/h (1 Bft) 97,87 %
25.05.2019 02:08 11,1 C 8,9 C 8,9 C 67 % 1016,4 hPa 0,0 l/m 0 min 0 min 0 W/m 0,0 km/h (0 Bft) 95,74 %
25.05.2019 02:06 11,2 C 8,9 C 8,9 C 67 % 1016,4 hPa 0,0 l/m 0 min 0 min 0 W/m 0,0 km/h (0 Bft) 97,83 %
25.05.2019 02:04 11,2 C 8,9 C 8,9 C 67 % 1016,3 hPa 0,0 l/m 0 min 0 min 0 W/m 0,0 km/h (0 Bft) 98,00 %
25.05.2019 02:02 11,2 C 9,4 C 8,9 C 67 % 1016,3 hPa 0,0 l/m 0 min 0 min 0 W/m 0,0 km/h (0 Bft) 97,87 %
25.05.2019 02:00 11,3 C 9,4 C 8,9 C 67 % 1016,4 hPa 0,0 l/m 0 min 0 min 0 W/m 3,2 km/h (1 Bft) 97,87 %
25.05.2019 01:58 11,3 C 9,4 C 8,9 C 67 % 1016,4 hPa 0,0 l/m 0 min 0 min 0 W/m 0,0 km/h (0 Bft) 97,87 %
25.05.2019 01:56 11,4 C 9,4 C 8,9 C 67 % 1016,3 hPa 0,0 l/m 0 min 0 min 0 W/m 0,0 km/h (0 Bft) 97,87 %
25.05.2019 01:54 11,4 C 9,4 C 8,9 C 67 % 1016,3 hPa 0,0 l/m 0 min 0 min 0 W/m 0,0 km/h (0 Bft) 97,83 %
25.05.2019 01:52 11,4 C 9,4 C 8,9 C 67 % 1016,3 hPa 0,0 l/m 0 min 0 min 0 W/m 0,0 km/h (0 Bft) 97,87 %
25.05.2019 01:50 11,5 C 9,4 C 9,4 C 66 % 1016,4 hPa 0,0 l/m 0 min 0 min 0 W/m 6,4 km/h (2 Bft) 97,87 %
25.05.2019 01:48 11,6 C 9,4 C 8,9 C 66 % 1016,3 hPa 0,0 l/m 0 min 0 min 0 W/m 6,4 km/h (2 Bft) 100,00 %
25.05.2019 01:46 11,6 C 9,4 C 8,9 C 66 % 1016,3 hPa 0,0 l/m 0 min 0 min 0 W/m 3,2 km/h (1 Bft) 100,00 %
25.05.2019 01:44 11,6 C 9,4 C 8,9 C 66 % 1016,3 hPa 0,0 l/m 0 min 0 min 0 W/m 0,0 km/h (0 Bft) 97,83 %
25.05.2019 01:42 11,7 C 9,4 C 8,9 C 66 % 1016,3 hPa 0,0 l/m 0 min 0 min 0 W/m 0,0 km/h (0 Bft) 93,62 %
25.05.2019 01:40 11,7 C 9,4 C 9,4 C 66 % 1016,3 hPa 0,0 l/m 0 min 0 min 0 W/m 0,0 km/h (0 Bft) 97,87 %
25.05.2019 01:38 11,7 C 9,4 C 9,4 C 65 % 1016,3 hPa 0,0 l/m 0 min 0 min 0 W/m 0,0 km/h (0 Bft) 91,43 %
25.05.2019 01:36 11,8 C 9,4 C 9,4 C 65 % 1016,3 hPa 0,0 l/m 0 min 0 min 0 W/m 0,0 km/h (0 Bft) 96,61 %
25.05.2019 01:34 11,8 C 10,0 C 9,4 C 65 % 1016,3 hPa 0,0 l/m 0 min 0 min 0 W/m 0,0 km/h (0 Bft) 97,87 %
25.05.2019 01:32 11,9 C 10,0 C 9,4 C 65 % 1016,3 hPa 0,0 l/m 0 min 0 min 0 W/m 0,0 km/h (0 Bft) 97,83 %
25.05.2019 01:30 11,9 C 10,0 C 9,4 C 65 % 1016,3 hPa 0,0 l/m 0 min 0 min 0 W/m 0,0 km/h (0 Bft) 97,87 %
25.05.2019 01:28 11,9 C 10,0 C 9,4 C 65 % 1016,3 hPa 0,0 l/m 0 min 0 min 0 W/m 0,0 km/h (0 Bft) 97,87 %
25.05.2019 01:26 12,0 C 10,0 C 9,4 C 65 % 1016,4 hPa 0,0 l/m 0 min 0 min 0 W/m 3,2 km/h (1 Bft) 97,87 %
25.05.2019 01:24 12,1 C 10,0 C 10,0 C 64 % 1016,4 hPa 0,0 l/m 0 min 0 min 0 W/m 3,2 km/h (1 Bft) 97,87 %
25.05.2019 01:22 12,1 C 10,0 C 10,0 C 64 % 1016,4 hPa 0,0 l/m 0 min 0 min 0 W/m 3,2 km/h (1 Bft) 95,74 %
25.05.2019 01:20 12,2 C 10,0 C 10,0 C 64 % 1016,4 hPa 0,0 l/m 0 min 0 min 0 W/m 3,2 km/h (1 Bft) 97,83 %
25.05.2019 01:18 12,2 C 10,0 C 9,4 C 64 % 1016,4 hPa 0,0 l/m 0 min 0 min 0 W/m 3,2 km/h (1 Bft) 97,87 %
25.05.2019 01:16 12,2 C 10,0 C 9,4 C 63 % 1016,4 hPa 0,0 l/m 0 min 0 min 0 W/m 3,2 km/h (1 Bft) 97,87 %
25.05.2019 01:14 12,3 C 10,0 C 9,4 C 63 % 1016,4 hPa 0,0 l/m 0 min 0 min 0 W/m 3,2 km/h (1 Bft) 97,87 %
25.05.2019 01:12 12,3 C 10,0 C 10,0 C 63 % 1016,4 hPa 0,0 l/m 0 min 0 min 0 W/m 3,2 km/h (1 Bft) 97,87 %
25.05.2019 01:10 12,4 C 10,0 C 10,0 C 63 % 1016,4 hPa 0,0 l/m 0 min 0 min 0 W/m 0,0 km/h (0 Bft) 97,83 %
25.05.2019 01:08 12,4 C 10,0 C 10,0 C 63 % 1016,4 hPa 0,0 l/m 0 min 0 min 0 W/m 0,0 km/h (0 Bft) 97,87 %
25.05.2019 01:06 12,5 C 10,0 C 10,0 C 63 % 1016,4 hPa 0,0 l/m 0 min 0 min 0 W/m 0,0 km/h (0 Bft) 95,74 %
25.05.2019 01:04 12,6 C 10,6 C 10,0 C 62 % 1016,4 hPa 0,0 l/m 0 min 0 min 0 W/m 0,0 km/h (0 Bft) 100,00 %
25.05.2019 01:02 12,6 C 10,6 C 10,0 C 62 % 1016,4 hPa 0,0 l/m 0 min 0 min 0 W/m 3,2 km/h (1 Bft) 100,00 %
25.05.2019 01:00 12,7 C 10,6 C 10,0 C 62 % 1016,3 hPa 0,0 l/m 0 min 0 min 0 W/m 0,0 km/h (0 Bft) 95,74 %
25.05.2019 00:58 12,7 C 10,6 C 10,0 C 62 % 1016,4 hPa 0,0 l/m 0 min 0 min 0 W/m 3,2 km/h (1 Bft) 95,74 %
25.05.2019 00:56 12,7 C 10,6 C 10,0 C 62 % 1016,3 hPa 0,0 l/m 0 min 0 min 0 W/m 3,2 km/h (1 Bft) 97,83 %
25.05.2019 00:54 12,8 C 10,6 C 10,0 C 62 % 1016,3 hPa 0,0 l/m 0 min 0 min 0 W/m 3,2 km/h (1 Bft) 100,00 %
25.05.2019 00:52 12,8 C 10,6 C 10,0 C 62 % 1016,3 hPa 0,0 l/m 0 min 0 min 0 W/m 3,2 km/h (1 Bft) 100,00 %
25.05.2019 00:50 12,9 C 10,6 C 10,0 C 61 % 1016,3 hPa 0,0 l/m 0 min 0 min 0 W/m 3,2 km/h (1 Bft) 100,00 %
25.05.2019 00:48 12,9 C 10,6 C 10,6 C 61 % 1016,3 hPa 0,0 l/m 0 min 0 min 0 W/m 0,0 km/h (0 Bft) 95,74 %
25.05.2019 00:46 13,0 C 10,6 C 10,6 C 61 % 1016,4 hPa 0,0 l/m 0 min 0 min 0 W/m 0,0 km/h (0 Bft) 100,00 %
25.05.2019 00:44 13,1 C 10,6 C 10,6 C 61 % 1016,3 hPa 0,0 l/m 0 min 0 min 0 W/m 0,0 km/h (0 Bft) 100,00 %
25.05.2019 00:42 13,1 C 11,1 C 10,6 C 61 % 1016,3 hPa 0,0 l/m 0 min 0 min 0 W/m 0,0 km/h (0 Bft) 100,00 %
25.05.2019 00:40 13,1 C 11,1 C 10,6 C 61 % 1016,3 hPa 0,0 l/m 0 min 0 min 0 W/m 0,0 km/h (0 Bft) 97,87 %
25.05.2019 00:38 13,2 C 11,1 C 10,6 C 61 % 1016,3 hPa 0,0 l/m 0 min 0 min 0 W/m 0,0 km/h (0 Bft) 100,00 %
25.05.2019 00:36 13,2 C 11,1 C 10,6 C 61 % 1016,3 hPa 0,0 l/m 0 min 0 min 0 W/m 0,0 km/h (0 Bft) 97,87 %
25.05.2019 00:34 13,3 C 11,1 C 10,6 C 61 % 1016,3 hPa 0,0 l/m 0 min 0 min 0 W/m 0,0 km/h (0 Bft) 97,87 %
25.05.2019 00:32 13,3 C 11,1 C 10,6 C 61 % 1016,3 hPa 0,0 l/m 0 min 0 min 0 W/m 0,0 km/h (0 Bft) 95,65 %
25.05.2019 00:30 13,4 C 11,1 C 10,6 C 61 % 1016,3 hPa 0,0 l/m 0 min 0 min 0 W/m 0,0 km/h (0 Bft) 97,87 %
25.05.2019 00:28 13,4 C 11,1 C 10,6 C 60 % 1016,3 hPa 0,0 l/m 0 min 0 min 0 W/m 0,0 km/h (0 Bft) 97,87 %
25.05.2019 00:26 13,5 C 11,1 C 11,1 C 60 % 1016,2 hPa 0,0 l/m 0 min 0 min 0 W/m 0,0 km/h (0 Bft) 97,87 %
25.05.2019 00:24 13,6 C 11,1 C 11,1 C 60 % 1016,2 hPa 0,0 l/m 0 min 0 min 0 W/m 0,0 km/h (0 Bft) 95,74 %
25.05.2019 00:22 13,6 C 11,1 C 11,1 C 60 % 1016,1 hPa 0,0 l/m 0 min 0 min 0 W/m 0,0 km/h (0 Bft) 97,87 %
25.05.2019 00:20 13,7 C 11,1 C 11,1 C 60 % 1016,2 hPa 0,0 l/m 0 min 0 min 0 W/m 0,0 km/h (0 Bft) 97,83 %
25.05.2019 00:18 13,7 C 11,7 C 11,1 C 60 % 1016,2 hPa 0,0 l/m 0 min 0 min 0 W/m 3,2 km/h (1 Bft) 97,67 %
25.05.2019 00:16 13,8 C 11,7 C 11,1 C 59 % 1016,2 hPa 0,0 l/m 0 min 0 min 0 W/m 3,2 km/h (1 Bft) 97,87 %
25.05.2019 00:14 13,8 C 11,7 C 11,1 C 59 % 1016,2 hPa 0,0 l/m 0 min 0 min 0 W/m 3,2 km/h (1 Bft) 97,87 %
25.05.2019 00:12 13,9 C 11,7 C 11,1 C 59 % 1016,1 hPa 0,0 l/m 0 min 0 min 0 W/m 3,2 km/h (1 Bft) 97,87 %
25.05.2019 00:10 13,9 C 11,7 C 11,1 C 59 % 1016,1 hPa 0,0 l/m 0 min 0 min 0 W/m 6,4 km/h (2 Bft) 97,62 %
25.05.2019 00:08 14,0 C 11,7 C 11,1 C 58 % 1016,1 hPa 0,0 l/m 0 min 0 min 0 W/m 6,4 km/h (2 Bft) 97,85 %
25.05.2019 00:04 14,1 C 11,7 C 11,1 C 59 % 1016,1 hPa 0,0 l/m 0 min 0 min 0 W/m 3,2 km/h (1 Bft) 97,87 %
25.05.2019 00:02 14,2 C 11,7 C 11,7 C 59 % 1016,1 hPa 0,0 l/m 0 min 0 min 0 W/m 0,0 km/h (0 Bft) 95,35 %
25.05.2019 00:00 14,2 C 12,2 C 11,7 C 59 % 1016,1 hPa 0,0 l/m 0 min 0 min 0 W/m 0,0 km/h (0 Bft) 97,87 %
24.05.2019 23:58 14,2 C 12,2 C 11,7 C 60 % 1016,0 hPa 0,0 l/m 0 min 0 min 0 W/m 0,0 km/h (0 Bft) 97,87 %
24.05.2019 23:56 14,2 C 12,2 C 11,7 C 60 % 1016,1 hPa 0,0 l/m 0 min 0 min 0 W/m 0,0 km/h (0 Bft) 97,83 %
24.05.2019 23:54 14,2 C 12,2 C 11,7 C 59 % 1016,0 hPa 0,0 l/m 0 min 0 min 0 W/m 0,0 km/h (0 Bft) 97,87 %
24.05.2019 23:52 14,2 C 12,2 C 11,7 C 59 % 1016,1 hPa 0,0 l/m 0 min 0 min 0 W/m 0,0 km/h (0 Bft) 95,74 %
24.05.2019 23:50 14,3 C 12,2 C 11,7 C 59 % 1016,1 hPa 0,0 l/m 0 min 0 min 0 W/m 3,2 km/h (1 Bft) 97,87 %
24.05.2019 23:48 14,4 C 12,2 C 11,7 C 58 % 1016,1 hPa 0,0 l/m 0 min 0 min 0 W/m 3,2 km/h (1 Bft) 97,87 %
24.05.2019 23:46 14,4 C 12,8 C 12,2 C 58 % 1016,0 hPa 0,0 l/m 0 min 0 min 0 W/m 3,2 km/h (1 Bft) 97,87 %
24.05.2019 23:44 14,4 C 12,8 C 12,2 C 58 % 1016,0 hPa 0,0 l/m 0 min 0 min 0 W/m 3,2 km/h (1 Bft) 95,65 %
24.05.2019 23:42 14,5 C 12,8 C 12,2 C 58 % 1016,0 hPa 0,0 l/m 0 min 0 min 0 W/m 3,2 km/h (1 Bft) 97,87 %
24.05.2019 23:40 14,6 C 12,8 C 12,2 C 57 % 1016,0 hPa 0,0 l/m 0 min 0 min 0 W/m 3,2 km/h (1 Bft) 100,00 %
24.05.2019 23:38 14,6 C 12,8 C 12,2 C 57 % 1016,0 hPa 0,0 l/m 0 min 0 min 0 W/m 3,2 km/h (1 Bft) 100,00 %
24.05.2019 23:36 14,6 C 12,8 C 12,8 C 57 % 1015,9 hPa 0,0 l/m 0 min 0 min 0 W/m 6,4 km/h (2 Bft) 100,00 %
24.05.2019 23:34 14,7 C 12,8 C 12,8 C 57 % 1015,9 hPa 0,0 l/m 0 min 0 min 0 W/m 3,2 km/h (1 Bft) 95,74 %
24.05.2019 23:32 14,7 C 12,8 C 12,8 C 57 % 1015,8 hPa 0,0 l/m 0 min 0 min 0 W/m 3,2 km/h (1 Bft) 97,83 %
24.05.2019 23:30 14,8 C 13,3 C 12,8 C 57 % 1015,9 hPa 0,0 l/m 0 min 0 min 0 W/m 3,2 km/h (1 Bft) 97,87 %
24.05.2019 23:28 14,8 C 13,3 C 12,8 C 56 % 1015,9 hPa 0,0 l/m 0 min 0 min 0 W/m 6,4 km/h (2 Bft) 97,87 %
24.05.2019 23:26 14,9 C 13,3 C 12,8 C 56 % 1015,9 hPa 0,0 l/m 0 min 0 min 0 W/m 3,2 km/h (1 Bft) 97,87 %
24.05.2019 23:24 14,9 C 13,3 C 12,8 C 57 % 1015,9 hPa 0,0 l/m 0 min 0 min 0 W/m 6,4 km/h (2 Bft) 97,92 %
24.05.2019 23:22 15,0 C 13,3 C 12,8 C 57 % 1015,9 hPa 0,0 l/m 0 min 0 min 0 W/m 6,4 km/h (2 Bft) 95,74 %
24.05.2019 23:20 15,0 C 13,3 C 12,8 C 57 % 1015,9 hPa 0,0 l/m 0 min 0 min 0 W/m 3,2 km/h (1 Bft) 97,92 %
24.05.2019 23:18 15,1 C 13,3 C 12,8 C 56 % 1015,8 hPa 0,0 l/m 0 min 0 min 0 W/m 6,4 km/h (2 Bft) 97,87 %
24.05.2019 23:16 15,1 C 13,3 C 13,3 C 56 % 1015,9 hPa 0,0 l/m 0 min 0 min 0 W/m 3,2 km/h (1 Bft) 97,87 %
24.05.2019 23:14 15,2 C 13,3 C 13,3 C 57 % 1015,8 hPa 0,0 l/m 0 min 0 min 0 W/m 6,4 km/h (2 Bft) 97,96 %
24.05.2019 23:12 15,2 C 13,3 C 13,3 C 57 % 1015,8 hPa 0,0 l/m 0 min 0 min 0 W/m 3,2 km/h (1 Bft) 97,87 %
24.05.2019 23:10 15,3 C 13,9 C 13,3 C 57 % 1015,8 hPa 0,0 l/m 0 min 0 min 0 W/m 3,2 km/h (1 Bft) 97,83 %
24.05.2019 23:08 15,3 C 13,9 C 13,3 C 56 % 1015,8 hPa 0,0 l/m 0 min 0 min 0 W/m 6,4 km/h (2 Bft) 97,87 %
24.05.2019 23:06 15,4 C 13,9 C 13,3 C 56 % 1015,9 hPa 0,0 l/m 0 min 0 min 0 W/m 6,4 km/h (2 Bft) 97,87 %
24.05.2019 23:04 15,4 C 13,9 C 13,9 C 56 % 1015,8 hPa 0,0 l/m 0 min 0 min 0 W/m 6,4 km/h (2 Bft) 93,62 %
24.05.2019 23:02 15,5 C 13,9 C 13,9 C 56 % 1015,8 hPa 0,0 l/m 0 min 0 min 0 W/m 3,2 km/h (1 Bft) 97,87 %
24.05.2019 23:00 15,6 C 13,9 C 13,9 C 57 % 1015,7 hPa 0,0 l/m 0 min 0 min 0 W/m 6,4 km/h (2 Bft) 97,87 %
24.05.2019 22:58 15,6 C 13,9 C 13,9 C 58 % 1015,8 hPa 0,0 l/m 0 min 0 min 0 W/m 6,4 km/h (2 Bft) 97,83 %
24.05.2019 22:56 15,7 C 13,9 C 13,9 C 58 % 1015,8 hPa 0,0 l/m 0 min 0 min 0 W/m 3,2 km/h (1 Bft) 97,87 %
24.05.2019 22:54 15,7 C 13,9 C 13,9 C 57 % 1015,7 hPa 0,0 l/m 0 min 0 min 0 W/m 6,4 km/h (2 Bft) 97,87 %
24.05.2019 22:52 15,8 C 13,9 C 13,9 C 58 % 1015,7 hPa 0,0 l/m 0 min 0 min 0 W/m 3,2 km/h (1 Bft) 100,00 %
24.05.2019 22:50 15,8 C 13,9 C 13,9 C 58 % 1015,7 hPa 0,0 l/m 0 min 0 min 0 W/m 3,2 km/h (1 Bft) 100,00 %
24.05.2019 22:48 15,9 C 13,9 C 13,9 C 58 % 1015,7 hPa 0,0 l/m 0 min 0 min 0 W/m 3,2 km/h (1 Bft) 97,87 %
24.05.2019 22:46 15,9 C 14,4 C 13,9 C 56 % 1015,6 hPa 0,0 l/m 0 min 0 min 0 W/m 6,4 km/h (2 Bft) 100,00 %
24.05.2019 22:44 16,0 C 14,4 C 13,9 C 56 % 1015,6 hPa 0,0 l/m 0 min 0 min 0 W/m 3,2 km/h (1 Bft) 97,87 %
24.05.2019 22:42 16,0 C 14,4 C 14,4 C 56 % 1015,5 hPa 0,0 l/m 0 min 0 min 0 W/m 6,4 km/h (2 Bft) 100,00 %
24.05.2019 22:40 16,1 C 14,4 C 13,9 C 56 % 1015,6 hPa 0,0 l/m 0 min 0 min 0 W/m 6,4 km/h (2 Bft) 100,00 %
24.05.2019 22:38 16,1 C 14,4 C 13,9 C 55 % 1015,5 hPa 0,0 l/m 0 min 0 min 0 W/m 3,2 km/h (1 Bft) 100,00 %
24.05.2019 22:36 16,1 C 14,4 C 14,4 C 55 % 1015,6 hPa 0,0 l/m 0 min 0 min 0 W/m 3,2 km/h (1 Bft) 97,83 %
24.05.2019 22:34 16,2 C 14,4 C 14,4 C 55 % 1015,6 hPa 0,0 l/m 0 min 0 min 0 W/m 6,4 km/h (2 Bft) 100,00 %
24.05.2019 22:32 16,2 C 14,4 C 14,4 C 55 % 1015,5 hPa 0,0 l/m 0 min 0 min 0 W/m 6,4 km/h (2 Bft) 100,00 %
24.05.2019 22:30 16,2 C 15,0 C 14,4 C 55 % 1015,5 hPa 0,0 l/m 0 min 0 min 0 W/m 6,4 km/h (2 Bft) 100,00 %
24.05.2019 22:28 16,3 C 15,0 C 14,4 C 54 % 1015,5 hPa 0,0 l/m 0 min 0 min 0 W/m 12,9 km/h (3 Bft) 100,00 %
24.05.2019 22:26 16,4 C 15,0 C 14,4 C 55 % 1015,5 hPa 0,0 l/m 0 min 0 min 0 W/m 12,9 km/h (3 Bft) 97,87 %
24.05.2019 22:24 16,4 C 15,0 C 14,4 C 55 % 1015,4 hPa 0,0 l/m 0 min 0 min 0 W/m 9,7 km/h (2 Bft) 97,83 %
24.05.2019 22:22 16,5 C 15,0 C 14,4 C 54 % 1015,4 hPa 0,0 l/m 0 min 0 min 0 W/m 12,9 km/h (3 Bft) 97,87 %
24.05.2019 22:20 16,6 C 15,0 C 14,4 C 55 % 1015,4 hPa 0,0 l/m 0 min 0 min 0 W/m 6,4 km/h (2 Bft) 97,87 %
24.05.2019 22:18 16,6 C 15,0 C 14,4 C 56 % 1015,4 hPa 0,0 l/m 0 min 0 min 0 W/m 3,2 km/h (1 Bft) 97,87 %
24.05.2019 22:16 16,7 C 15,0 C 14,4 C 55 % 1015,4 hPa 0,0 l/m 0 min 0 min 0 W/m 6,4 km/h (2 Bft) 95,74 %
24.05.2019 22:14 16,7 C 15,0 C 14,4 C 56 % 1015,4 hPa 0,0 l/m 0 min 0 min 0 W/m 9,7 km/h (2 Bft) 97,87 %
24.05.2019 22:12 16,8 C 15,0 C 14,4 C 56 % 1015,3 hPa 0,0 l/m 0 min 0 min 0 W/m 6,4 km/h (2 Bft) 97,83 %
24.05.2019 22:10 16,8 C 15,0 C 14,4 C 56 % 1015,2 hPa 0,0 l/m 0 min 0 min 0 W/m 6,4 km/h (2 Bft) 97,87 %
24.05.2019 22:08 16,9 C 15,0 C 15,0 C 56 % 1015,2 hPa 0,0 l/m 0 min 0 min 0 W/m 9,7 km/h (2 Bft) 97,87 %
24.05.2019 22:06 16,9 C 15,6 C 15,0 C 56 % 1015,2 hPa 0,0 l/m 0 min 0 min 0 W/m 6,4 km/h (2 Bft) 97,87 %
24.05.2019 22:04 17,0 C 15,6 C 15,0 C 55 % 1015,2 hPa 0,0 l/m 0 min 0 min 0 W/m 6,4 km/h (2 Bft) 97,87 %
24.05.2019 22:02 17,1 C 15,6 C 15,0 C 55 % 1015,2 hPa 0,0 l/m 0 min 0 min 0 W/m 9,7 km/h (2 Bft) 97,87 %
24.05.2019 22:00 17,1 C 15,6 C 15,0 C 55 % 1015,1 hPa 0,0 l/m 0 min 0 min 0 W/m 6,4 km/h (2 Bft) 97,83 %
24.05.2019 21:58 17,2 C 15,6 C 15,0 C 55 % 1015,1 hPa 0,0 l/m 0 min 0 min 0 W/m 9,7 km/h (2 Bft) 97,87 %
24.05.2019 21:56 17,2 C 15,6 C 15,0 C 56 % 1015,1 hPa 0,0 l/m 0 min 0 min 0 W/m 9,7 km/h (2 Bft) 97,87 %
24.05.2019 21:54 17,3 C 15,6 C 15,0 C 55 % 1015,1 hPa 0,0 l/m 0 min 0 min 0 W/m 16,1 km/h (3 Bft) 97,87 %
24.05.2019 21:52 17,3 C 15,6 C 15,0 C 55 % 1015,1 hPa 0,0 l/m 0 min 0 min 0 W/m 12,9 km/h (3 Bft) 97,87 %
24.05.2019 21:50 17,4 C 15,6 C 15,6 C 55 % 1015,0 hPa 0,0 l/m 0 min 0 min 0 W/m 9,7 km/h (2 Bft) 97,87 %
24.05.2019 21:48 17,4 C 16,1 C 15,6 C 56 % 1015,0 hPa 0,0 l/m 0 min 0 min 0 W/m 9,7 km/h (2 Bft) 95,65 %
24.05.2019 21:46 17,5 C 16,1 C 15,6 C 56 % 1015,0 hPa 0,0 l/m 0 min 0 min 0 W/m 12,9 km/h (3 Bft) 97,87 %
24.05.2019 21:44 17,6 C 16,1 C 15,6 C 57 % 1015,0 hPa 0,0 l/m 0 min 0 min 0 W/m 9,7 km/h (2 Bft) 97,87 %
24.05.2019 21:42 17,6 C 16,1 C 15,6 C 56 % 1015,0 hPa 0,0 l/m 0 min 0 min 0 W/m 6,4 km/h (2 Bft) 97,87 %
24.05.2019 21:40 17,7 C 16,1 C 15,6 C 56 % 1015,0 hPa 0,0 l/m 0 min 0 min 0 W/m 19,3 km/h (3 Bft) 97,87 %
24.05.2019 21:38 17,8 C 16,1 C 15,6 C 56 % 1015,0 hPa 0,0 l/m 0 min 0 min 0 W/m 12,9 km/h (3 Bft) 97,87 %
24.05.2019 21:36 17,8 C 16,1 C 15,6 C 58 % 1015,0 hPa 0,0 l/m 0 min 0 min 5 W/m 9,7 km/h (2 Bft) 97,83 %
24.05.2019 21:34 17,9 C 16,1 C 15,6 C 58 % 1015,0 hPa 0,0 l/m 0 min 0 min 5 W/m 9,7 km/h (2 Bft) 97,87 %
24.05.2019 21:32 18,0 C 16,1 C 15,6 C 58 % 1015,0 hPa 0,0 l/m 0 min 0 min 5 W/m 6,4 km/h (2 Bft) 97,87 %
24.05.2019 21:30 18,1 C 16,1 C 15,6 C 59 % 1014,9 hPa 0,0 l/m 0 min 0 min 7 W/m 6,4 km/h (2 Bft) 97,87 %
24.05.2019 21:28 18,1 C 16,1 C 15,6 C 59 % 1014,9 hPa 0,0 l/m 0 min 0 min 7 W/m 6,4 km/h (2 Bft) 93,62 %
24.05.2019 21:26 18,2 C 16,1 C 15,6 C 58 % 1014,9 hPa 0,0 l/m 0 min 0 min 8 W/m 6,4 km/h (2 Bft) 97,83 %
24.05.2019 21:24 18,2 C 16,7 C 15,6 C 58 % 1014,8 hPa 0,0 l/m 0 min 0 min 9 W/m 6,4 km/h (2 Bft) 95,74 %
24.05.2019 21:22 18,3 C 16,7 C 15,6 C 58 % 1014,9 hPa 0,0 l/m 0 min 0 min 10 W/m 9,7 km/h (2 Bft) 95,74 %
24.05.2019 21:20 18,4 C 16,7 C 16,1 C 58 % 1014,8 hPa 0,0 l/m 0 min 0 min 11 W/m 12,9 km/h (3 Bft) 95,74 %
24.05.2019 21:18 18,4 C 16,7 C 16,1 C 58 % 1014,8 hPa 0,0 l/m 0 min 0 min 12 W/m 9,7 km/h (2 Bft) 97,87 %
24.05.2019 21:16 18,5 C 16,7 C 16,1 C 58 % 1014,8 hPa 0,0 l/m 0 min 0 min 13 W/m 3,2 km/h (1 Bft) 95,74 %
24.05.2019 21:14 18,6 C 16,7 C 16,1 C 58 % 1014,8 hPa 0,0 l/m 0 min 0 min 15 W/m 6,4 km/h (2 Bft) 97,83 %
24.05.2019 21:12 18,6 C 16,7 C 16,1 C 58 % 1014,7 hPa 0,0 l/m 0 min 0 min 16 W/m 6,4 km/h (2 Bft) 100,00 %
24.05.2019 21:10 18,7 C 17,2 C 16,1 C 59 % 1014,8 hPa 0,0 l/m 0 min 0 min 18 W/m 6,4 km/h (2 Bft) 95,74 %
24.05.2019 21:08 18,7 C 17,2 C 16,1 C 59 % 1014,7 hPa 0,0 l/m 0 min 0 min 19 W/m 6,4 km/h (2 Bft) 95,74 %
24.05.2019 21:06 18,7 C 17,2 C 16,7 C 58 % 1014,7 hPa 0,0 l/m 0 min 0 min 20 W/m 12,9 km/h (3 Bft) 95,74 %
24.05.2019 21:04 18,8 C 17,2 C 16,7 C 58 % 1014,6 hPa 0,0 l/m 0 min 0 min 22 W/m 9,7 km/h (2 Bft) 95,74 %
24.05.2019 21:02 18,8 C 17,2 C 16,7 C 58 % 1014,6 hPa 0,0 l/m 0 min 0 min 24 W/m 16,1 km/h (3 Bft) 95,65 %
24.05.2019 21:00 18,9 C 17,8 C 16,7 C 58 % 1014,6 hPa 0,0 l/m 0 min 0 min 26 W/m 16,1 km/h (3 Bft) 93,62 %
24.05.2019 20:58 18,9 C 17,8 C 16,7 C 58 % 1014,6 hPa 0,0 l/m 0 min 0 min 28 W/m 9,7 km/h (2 Bft) 95,74 %
24.05.2019 20:56 19,0 C 17,8 C 16,7 C 58 % 1014,6 hPa 0,0 l/m 0 min 0 min 29 W/m 9,7 km/h (2 Bft) 95,74 %
24.05.2019 20:54 19,1 C 17,8 C 17,2 C 58 % 1014,6 hPa 0,0 l/m 0 min 0 min 31 W/m 16,1 km/h (3 Bft) 93,62 %
24.05.2019 20:52 19,1 C 17,8 C 16,7 C 58 % 1014,5 hPa 0,0 l/m 0 min 0 min 34 W/m 12,9 km/h (3 Bft) 95,74 %
24.05.2019 20:50 19,2 C 17,8 C 17,2 C 58 % 1014,5 hPa 0,0 l/m 0 min 0 min 36 W/m 22,5 km/h (4 Bft) 95,65 %
24.05.2019 20:48 19,2 C 17,8 C 17,2 C 57 % 1014,5 hPa 0,0 l/m 0 min 0 min 37 W/m 19,3 km/h (3 Bft) 95,74 %
24.05.2019 20:46 19,3 C 17,8 C 17,2 C 58 % 1014,5 hPa 0,0 l/m 0 min 0 min 37 W/m 12,9 km/h (3 Bft) 95,74 %
24.05.2019 20:44 19,4 C 17,8 C 17,2 C 58 % 1014,5 hPa 0,0 l/m 0 min 0 min 37 W/m 12,9 km/h (3 Bft) 95,74 %
24.05.2019 20:42 19,4 C 18,3 C 17,2 C 58 % 1014,4 hPa 0,0 l/m 0 min 0 min 37 W/m 12,9 km/h (3 Bft) 97,87 %
24.05.2019 20:40 19,5 C 18,3 C 17,2 C 58 % 1014,4 hPa 0,0 l/m 0 min 0 min 39 W/m 12,9 km/h (3 Bft) 97,87 %
24.05.2019 20:38 19,6 C 18,3 C 17,2 C 58 % 1014,3 hPa 0,0 l/m 0 min 0 min 40 W/m 16,1 km/h (3 Bft) 95,65 %
24.05.2019 20:36 19,6 C 18,3 C 17,2 C 58 % 1014,3 hPa 0,0 l/m 0 min 0 min 40 W/m 16,1 km/h (3 Bft) 97,87 %
24.05.2019 20:34 19,7 C 18,3 C 17,2 C 58 % 1014,2 hPa 0,0 l/m 0 min 0 min 43 W/m 22,5 km/h (4 Bft) 97,87 %
24.05.2019 20:32 19,7 C 18,3 C 17,8 C 58 % 1014,3 hPa 0,0 l/m 0 min 0 min 45 W/m 19,3 km/h (3 Bft) 97,87 %
24.05.2019 20:30 19,8 C 18,3 C 17,8 C 58 % 1014,2 hPa 0,0 l/m 0 min 0 min 48 W/m 19,3 km/h (3 Bft) 97,87 %
24.05.2019 20:28 19,9 C 18,9 C 17,8 C 58 % 1014,3 hPa 0,0 l/m 0 min 0 min 50 W/m 19,3 km/h (3 Bft) 97,87 %
24.05.2019 20:26 20,0 C 18,9 C 17,8 C 58 % 1014,2 hPa 0,0 l/m 0 min 0 min 53 W/m 22,5 km/h (4 Bft) 97,83 %
24.05.2019 20:24 20,0 C 18,9 C 18,3 C 59 % 1014,2 hPa 0,0 l/m 0 min 0 min 56 W/m 12,9 km/h (3 Bft) 97,87 %
24.05.2019 20:22 20,1 C 18,9 C 18,3 C 59 % 1014,2 hPa 0,0 l/m 0 min 0 min 60 W/m 22,5 km/h (4 Bft) 97,87 %
24.05.2019 20:20 20,2 C 18,9 C 18,3 C 58 % 1014,2 hPa 0,0 l/m 0 min 0 min 63 W/m 12,9 km/h (3 Bft) 97,87 %
24.05.2019 20:18 20,3 C 18,9 C 18,3 C 58 % 1014,1 hPa 0,0 l/m 0 min 0 min 65 W/m 16,1 km/h (3 Bft) 97,87 %
24.05.2019 20:16 20,3 C 18,9 C 17,8 C 58 % 1014,1 hPa 0,0 l/m 0 min 0 min 69 W/m 16,1 km/h (3 Bft) 97,83 %
24.05.2019 20:14 20,4 C 18,9 C 17,8 C 58 % 1014,0 hPa 0,0 l/m 0 min 0 min 70 W/m 12,9 km/h (3 Bft) 97,87 %
24.05.2019 20:12 20,5 C 19,4 C 17,8 C 59 % 1013,9 hPa 0,0 l/m 0 min 0 min 73 W/m 22,5 km/h (4 Bft) 97,87 %
24.05.2019 20:10 20,6 C 19,4 C 18,3 C 59 % 1013,8 hPa 0,0 l/m 0 min 0 min 75 W/m 16,1 km/h (3 Bft) 97,87 %
24.05.2019 20:08 20,7 C 19,4 C 18,3 C 60 % 1013,9 hPa 0,0 l/m 0 min 0 min 76 W/m 12,9 km/h (3 Bft) 97,87 %
24.05.2019 20:06 20,7 C 19,4 C 18,3 C 59 % 1013,8 hPa 0,0 l/m 0 min 0 min 78 W/m 12,9 km/h (3 Bft) 100,00 %
24.05.2019 20:04 20,8 C 19,4 C 18,3 C 59 % 1013,7 hPa 0,0 l/m 0 min 0 min 80 W/m 19,3 km/h (3 Bft) 97,83 %
24.05.2019 20:02 20,9 C 20,0 C 18,3 C 58 % 1013,7 hPa 0,0 l/m 0 min 0 min 84 W/m 16,1 km/h (3 Bft) 97,87 %
24.05.2019 20:00 21,0 C 20,0 C 18,3 C 59 % 1013,7 hPa 0,0 l/m 0 min 0 min 87 W/m 16,1 km/h (3 Bft) 100,00 %
24.05.2019 19:58 21,1 C 20,0 C 18,3 C 59 % 1013,7 hPa 0,0 l/m 0 min 0 min 90 W/m 12,9 km/h (3 Bft) 100,00 %
24.05.2019 19:56 21,2 C 20,0 C 18,3 C 59 % 1013,6 hPa 0,0 l/m 0 min 0 min 94 W/m 9,7 km/h (2 Bft) 100,00 %
24.05.2019 19:54 21,2 C 20,0 C 18,9 C 59 % 1013,6 hPa 0,0 l/m 0 min 0 min 97 W/m 19,3 km/h (3 Bft) 100,00 %
24.05.2019 19:52 21,3 C 20,0 C 18,3 C 58 % 1013,6 hPa 0,0 l/m 0 min 0 min 100 W/m 19,3 km/h (3 Bft) 100,00 %
24.05.2019 19:50 21,4 C 20,0 C 18,9 C 58 % 1013,6 hPa 0,0 l/m 0 min 0 min 102 W/m 19,3 km/h (3 Bft) 100,00 %
24.05.2019 19:48 21,5 C 20,0 C 18,3 C 59 % 1013,6 hPa 0,0 l/m 0 min 0 min 104 W/m 12,9 km/h (3 Bft) 100,00 %
24.05.2019 19:46 21,6 C 20,0 C 18,3 C 59 % 1013,6 hPa 0,0 l/m 0 min 0 min 108 W/m 16,1 km/h (3 Bft) 100,00 %
24.05.2019 19:44 21,7 C 20,6 C 18,3 C 60 % 1013,4 hPa 0,0 l/m 0 min 0 min 112 W/m 9,7 km/h (2 Bft) 100,00 %
24.05.2019 19:42 21,8 C 20,6 C 18,3 C 59 % 1013,5 hPa 0,0 l/m 0 min 0 min 116 W/m 6,4 km/h (2 Bft) 100,00 %
24.05.2019 19:40 21,9 C 20,6 C 18,3 C 58 % 1013,5 hPa 0,0 l/m 0 min 0 min 119 W/m 6,4 km/h (2 Bft) 100,00 %
24.05.2019 19:38 21,9 C 20,6 C 18,9 C 57 % 1013,5 hPa 0,0 l/m 0 min 0 min 120 W/m 9,7 km/h (2 Bft) 97,87 %
24.05.2019 19:36 22,0 C 20,6 C 18,9 C 56 % 1013,4 hPa 0,0 l/m 0 min 0 min 122 W/m 16,1 km/h (3 Bft) 100,00 %
24.05.2019 19:34 22,1 C 20,6 C 18,9 C 57 % 1013,4 hPa 0,0 l/m 0 min 0 min 124 W/m 9,7 km/h (2 Bft) 100,00 %
24.05.2019 19:32 22,2 C 20,6 C 18,9 C 57 % 1013,4 hPa 0,0 l/m 0 min 0 min 130 W/m 19,3 km/h (3 Bft) 100,00 %
24.05.2019 19:30 22,2 C 20,6 C 18,9 C 57 % 1013,4 hPa 0,0 l/m 2 min 0 min 146 W/m 6,4 km/h (2 Bft) 100,00 %
24.05.2019 19:28 22,3 C 21,1 C 18,9 C 56 % 1013,4 hPa 0,0 l/m 2 min 0 min 159 W/m 9,7 km/h (2 Bft) 100,00 %
24.05.2019 19:26 22,4 C 21,1 C 18,9 C 55 % 1013,4 hPa 0,0 l/m 2 min 0 min 157 W/m 22,5 km/h (4 Bft) 100,00 %
24.05.2019 19:24 22,4 C 21,1 C 18,9 C 56 % 1013,4 hPa 0,0 l/m 2 min 0 min 155 W/m 6,4 km/h (2 Bft) 97,87 %
24.05.2019 19:22 22,4 C 21,1 C 18,9 C 55 % 1013,3 hPa 0,0 l/m 2 min 0 min 159 W/m 19,3 km/h (3 Bft) 100,00 %
24.05.2019 19:20 22,5 C 21,1 C 19,4 C 54 % 1013,4 hPa 0,0 l/m 2 min 0 min 169 W/m 25,7 km/h (4 Bft) 97,87 %
24.05.2019 19:18 22,6 C 21,1 C 19,4 C 55 % 1013,4 hPa 0,0 l/m 2 min 0 min 180 W/m 19,3 km/h (3 Bft) 100,00 %
24.05.2019 19:16 22,7 C 21,7 C 19,4 C 54 % 1013,3 hPa 0,0 l/m 2 min 0 min 187 W/m 16,1 km/h (3 Bft) 100,00 %
24.05.2019 19:14 22,8 C 21,7 C 19,4 C 54 % 1013,4 hPa 0,0 l/m 2 min 0 min 191 W/m 12,9 km/h (3 Bft) 97,87 %
24.05.2019 19:12 22,9 C 22,2 C 19,4 C 50 % 1013,4 hPa 0,0 l/m 2 min 0 min 193 W/m 9,7 km/h (2 Bft) 100,00 %
24.05.2019 19:10 22,9 C 22,2 C 19,4 C 49 % 1013,3 hPa 0,0 l/m 2 min 0 min 199 W/m 12,9 km/h (3 Bft) 100,00 %
24.05.2019 19:08 22,9 C 22,2 C 19,4 C 49 % 1013,3 hPa 0,0 l/m 2 min 0 min 197 W/m 3,2 km/h (1 Bft) 100,00 %
24.05.2019 19:06 23,0 C 22,2 C 20,0 C 47 % 1013,3 hPa 0,0 l/m 2 min 0 min 206 W/m 9,7 km/h (2 Bft) 97,83 %
24.05.2019 19:04 23,0 C 22,2 C 20,0 C 50 % 1013,3 hPa 0,0 l/m 2 min 0 min 200 W/m 12,9 km/h (3 Bft) 100,00 %
24.05.2019 19:02 23,1 C 22,2 C 20,6 C 49 % 1013,3 hPa 0,0 l/m 2 min 0 min 195 W/m 6,4 km/h (2 Bft) 100,00 %
24.05.2019 19:00 23,1 C 22,2 C 20,6 C 48 % 1013,3 hPa 0,0 l/m 2 min 0 min 204 W/m 6,4 km/h (2 Bft) 97,87 %
24.05.2019 18:58 23,1 C 22,8 C 21,1 C 47 % 1013,3 hPa 0,0 l/m 2 min 0 min 218 W/m 9,7 km/h (2 Bft) 97,87 %
24.05.2019 18:56 23,1 C 22,8 C 21,1 C 47 % 1013,3 hPa 0,0 l/m 2 min 0 min 231 W/m 6,4 km/h (2 Bft) 95,74 %
24.05.2019 18:54 23,1 C 22,8 C 21,1 C 47 % 1013,3 hPa 0,0 l/m 2 min 0 min 245 W/m 12,9 km/h (3 Bft) 97,83 %
24.05.2019 18:52 23,1 C 22,8 C 21,7 C 46 % 1013,3 hPa 0,0 l/m 2 min 0 min 266 W/m 12,9 km/h (3 Bft) 95,74 %
24.05.2019 18:50 23,1 C 22,8 C 21,7 C 48 % 1013,3 hPa 0,0 l/m 2 min 0 min 279 W/m 9,7 km/h (2 Bft) 95,74 %
24.05.2019 18:48 23,0 C 23,3 C 21,7 C 48 % 1013,4 hPa 0,0 l/m 2 min 0 min 285 W/m 9,7 km/h (2 Bft) 95,74 %
24.05.2019 18:46 23,0 C 23,3 C 22,2 C 49 % 1013,4 hPa 0,0 l/m 2 min 0 min 278 W/m 12,9 km/h (3 Bft) 95,74 %
24.05.2019 18:44 23,0 C 23,9 C 22,2 C 51 % 1013,3 hPa 0,0 l/m 2 min 0 min 294 W/m 6,4 km/h (2 Bft) 93,62 %
24.05.2019 18:42 22,9 C 23,9 C 22,2 C 53 % 1013,4 hPa 0,0 l/m 2 min 0 min 335 W/m 6,4 km/h (2 Bft) 95,65 %
24.05.2019 18:40 22,9 C 23,3 C 21,7 C 51 % 1013,3 hPa 0,0 l/m 2 min 0 min 351 W/m 12,9 km/h (3 Bft) 95,74 %
24.05.2019 18:38 22,8 C 23,3 C 21,7 C 50 % 1013,4 hPa 0,0 l/m 2 min 0 min 370 W/m 9,7 km/h (2 Bft) 95,74 %
24.05.2019 18:36 22,8 C 23,3 C 21,7 C 50 % 1013,3 hPa 0,0 l/m 2 min 0 min 377 W/m 12,9 km/h (3 Bft) 93,62 %
24.05.2019 18:34 22,7 C 23,3 C 21,1 C 50 % 1013,3 hPa 0,0 l/m 2 min 0 min 379 W/m 12,9 km/h (3 Bft) 95,74 %
24.05.2019 18:32 22,7 C 22,8 C 21,1 C 52 % 1013,4 hPa 0,0 l/m 2 min 0 min 276 W/m 9,7 km/h (2 Bft) 95,74 %
24.05.2019 18:30 22,7 C 22,8 C 21,1 C 53 % 1013,3 hPa 0,0 l/m 2 min 0 min 209 W/m 12,9 km/h (3 Bft) 95,65 %
24.05.2019 18:28 22,7 C 22,8 C 21,1 C 52 % 1013,4 hPa 0,0 l/m 2 min 0 min 264 W/m 6,4 km/h (2 Bft) 95,74 %
24.05.2019 18:26 22,7 C 22,8 C 21,7 C 54 % 1013,4 hPa 0,0 l/m 2 min 0 min 287 W/m 12,9 km/h (3 Bft) 95,74 %
24.05.2019 18:24 22,8 C 22,8 C 21,7 C 54 % 1013,4 hPa 0,0 l/m 2 min 0 min 222 W/m 6,4 km/h (2 Bft) 95,74 %
24.05.2019 18:22 22,8 C 22,2 C 21,1 C 53 % 1013,4 hPa 0,0 l/m 0 min 0 min 185 W/m 9,7 km/h (2 Bft) 93,62 %
24.05.2019 18:20 22,8 C 22,2 C 21,1 C 54 % 1013,4 hPa 0,0 l/m 0 min 0 min 160 W/m 9,7 km/h (2 Bft) 95,74 %
24.05.2019 18:18 22,8 C 22,2 C 20,6 C 53 % 1013,4 hPa 0,0 l/m 0 min 0 min 157 W/m 6,4 km/h (2 Bft) 93,48 %
24.05.2019 18:16 22,8 C 22,8 C 21,1 C 54 % 1013,4 hPa 0,0 l/m 0 min 0 min 164 W/m 9,7 km/h (2 Bft) 95,74 %
24.05.2019 18:14 22,8 C 22,8 C 21,1 C 53 % 1013,4 hPa 0,0 l/m 0 min 0 min 162 W/m 12,9 km/h (3 Bft) 95,74 %
24.05.2019 18:12 22,8 C 22,8 C 21,1 C 51 % 1013,4 hPa 0,0 l/m 0 min 0 min 165 W/m 9,7 km/h (2 Bft) 97,87 %
24.05.2019 18:10 22,8 C 22,8 C 21,1 C 53 % 1013,4 hPa 0,0 l/m 0 min 0 min 178 W/m 6,4 km/h (2 Bft) 100,00 %
24.05.2019 18:08 22,9 C 22,8 C 21,7 C 52 % 1013,4 hPa 0,0 l/m 0 min 0 min 229 W/m 16,1 km/h (3 Bft) 100,00 %
24.05.2019 18:04 22,9 C 22,8 C 21,7 C 54 % 1013,4 hPa 0,0 l/m 2 min 0 min 358 W/m 12,9 km/h (3 Bft) 100,00 %
24.05.2019 18:02 22,9 C 22,8 C 21,7 C 55 % 1013,4 hPa 0,0 l/m 2 min 0 min 436 W/m 9,7 km/h (2 Bft) 95,74 %
24.05.2019 18:00 22,9 C 22,8 C 21,1 C 55 % 1013,4 hPa 0,0 l/m 2 min 0 min 361 W/m 9,7 km/h (2 Bft) 100,00 %
24.05.2019 17:58 22,9 C 22,8 C 21,1 C 56 % 1013,4 hPa 0,0 l/m 0 min 0 min 211 W/m 9,7 km/h (2 Bft) 100,00 %
24.05.2019 17:56 22,9 C 22,8 C 21,7 C 55 % 1013,5 hPa 0,0 l/m 0 min 0 min 200 W/m 6,4 km/h (2 Bft) 97,83 %
24.05.2019 17:54 22,9 C 22,8 C 21,7 C 55 % 1013,4 hPa 0,0 l/m 2 min 0 min 260 W/m 25,7 km/h (4 Bft) 97,87 %
24.05.2019 17:52 22,9 C 23,3 C 22,2 C 56 % 1013,5 hPa 0,0 l/m 2 min 0 min 305 W/m 9,7 km/h (2 Bft) 97,87 %
24.05.2019 17:50 22,9 C 23,3 C 22,2 C 57 % 1013,5 hPa 0,0 l/m 2 min 0 min 322 W/m 12,9 km/h (3 Bft) 95,74 %
24.05.2019 17:48 22,9 C 22,8 C 21,7 C 56 % 1013,5 hPa 0,0 l/m 2 min 0 min 314 W/m 16,1 km/h (3 Bft) 97,87 %
24.05.2019 17:46 22,9 C 22,8 C 21,7 C 55 % 1013,5 hPa 0,0 l/m 0 min 0 min 249 W/m 9,7 km/h (2 Bft) 97,87 %
24.05.2019 17:44 22,9 C 23,3 C 22,2 C 55 % 1013,4 hPa 0,0 l/m 2 min 0 min 379 W/m 6,4 km/h (2 Bft) 97,83 %
24.05.2019 17:42 22,9 C 23,3 C 22,2 C 55 % 1013,4 hPa 0,0 l/m 2 min 0 min 425 W/m 6,4 km/h (2 Bft) 97,87 %
24.05.2019 17:40 22,8 C 22,8 C 22,2 C 55 % 1013,4 hPa 0,0 l/m 2 min 0 min 436 W/m 9,7 km/h (2 Bft) 97,56 %
24.05.2019 17:38 22,8 C 23,3 C 22,2 C 56 % 1013,4 hPa 0,0 l/m 2 min 0 min 432 W/m 12,9 km/h (3 Bft) 95,74 %
24.05.2019 17:36 22,8 C 23,3 C 21,7 C 57 % 1013,5 hPa 0,0 l/m 2 min 0 min 327 W/m 9,7 km/h (2 Bft) 98,11 %
24.05.2019 17:34 22,8 C 23,3 C 21,7 C 58 % 1013,5 hPa 0,0 l/m 2 min 0 min 392 W/m 9,7 km/h (2 Bft) 97,87 %
24.05.2019 17:32 22,8 C 23,3 C 21,1 C 60 % 1013,6 hPa 0,0 l/m 0 min 0 min 247 W/m 6,4 km/h (2 Bft) 97,83 %
24.05.2019 17:30 22,8 C 22,8 C 21,1 C 59 % 1013,6 hPa 0,0 l/m 0 min 0 min 224 W/m 6,4 km/h (2 Bft) 95,74 %
24.05.2019 17:28 22,8 C 22,8 C 21,1 C 60 % 1013,6 hPa 0,0 l/m 0 min 0 min 209 W/m 6,4 km/h (2 Bft) 97,87 %
24.05.2019 17:26 22,7 C 22,8 C 21,1 C 58 % 1013,6 hPa 0,0 l/m 0 min 0 min 201 W/m 6,4 km/h (2 Bft) 97,87 %
24.05.2019 17:24 22,8 C 22,8 C 21,1 C 59 % 1013,6 hPa 0,0 l/m 0 min 0 min 206 W/m 9,7 km/h (2 Bft) 95,74 %
24.05.2019 17:22 22,8 C 22,8 C 20,6 C 60 % 1013,6 hPa 0,0 l/m 0 min 0 min 218 W/m 9,7 km/h (2 Bft) 97,87 %
24.05.2019 17:20 22,8 C 23,3 C 19,4 C 60 % 1013,6 hPa 0,0 l/m 2 min 0 min 320 W/m 9,7 km/h (2 Bft) 95,65 %
24.05.2019 17:18 22,7 C 23,9 C 18,9 C 64 % 1013,7 hPa 0,0 l/m 2 min 0 min 363 W/m 9,7 km/h (2 Bft) 97,87 %
24.05.2019 17:16 22,7 C 23,9 C 18,3 C 64 % 1013,7 hPa 0,0 l/m 2 min 0 min 506 W/m 6,4 km/h (2 Bft) 97,87 %
24.05.2019 17:14 22,6 C 23,9 C 18,9 C 63 % 1013,7 hPa 0,0 l/m 2 min 0 min 622 W/m 12,9 km/h (3 Bft) 95,74 %
24.05.2019 17:12 22,5 C 23,9 C 18,9 C 64 % 1013,8 hPa 0,0 l/m 2 min 0 min 644 W/m 9,7 km/h (2 Bft) 97,87 %
24.05.2019 17:10 22,4 C 23,3 C 18,3 C 66 % 1013,7 hPa 0,0 l/m 2 min 0 min 642 W/m 9,7 km/h (2 Bft) 97,87 %
24.05.2019 17:08 22,3 C 23,3 C 18,3 C 65 % 1013,7 hPa 0,0 l/m 2 min 0 min 619 W/m 12,9 km/h (3 Bft) 97,83 %
24.05.2019 17:06 22,2 C 23,3 C 18,3 C 67 % 1013,8 hPa 0,0 l/m 2 min 0 min 635 W/m 9,7 km/h (2 Bft) 97,87 %
24.05.2019 17:04 22,1 C 23,3 C 18,3 C 66 % 1013,8 hPa 0,0 l/m 2 min 0 min 637 W/m 12,9 km/h (3 Bft) 97,87 %
24.05.2019 17:02 22,1 C 22,8 C 18,3 C 68 % 1013,9 hPa 0,0 l/m 2 min 0 min 638 W/m 16,1 km/h (3 Bft) 100,00 %
24.05.2019 17:00 21,9 C 22,8 C 18,3 C 66 % 1013,9 hPa 0,0 l/m 2 min 0 min 641 W/m 9,7 km/h (2 Bft) 100,00 %
24.05.2019 16:58 21,8 C 22,2 C 18,3 C 65 % 1013,9 hPa 0,0 l/m 2 min 0 min 646 W/m 12,9 km/h (3 Bft) 97,83 %
24.05.2019 16:56 21,7 C 21,7 C 18,3 C 68 % 1013,9 hPa 0,0 l/m 2 min 0 min 643 W/m 19,3 km/h (3 Bft) 97,87 %
24.05.2019 16:54 21,7 C 21,7 C 18,3 C 70 % 1013,9 hPa 0,0 l/m 2 min 0 min 639 W/m 9,7 km/h (2 Bft) 100,00 %
24.05.2019 16:52 21,7 C 20,6 C 18,3 C 74 % 1013,9 hPa 0,0 l/m 2 min 0 min 673 W/m 9,7 km/h (2 Bft) 100,00 %
24.05.2019 16:50 21,7 C 20,0 C 18,3 C 75 % 1013,9 hPa 0,0 l/m 2 min 0 min 671 W/m 9,7 km/h (2 Bft) 97,87 %
24.05.2019 16:48 21,7 C 20,0 C 18,3 C 76 % 1013,9 hPa 0,0 l/m 2 min 0 min 639 W/m 12,9 km/h (3 Bft) 97,87 %
24.05.2019 16:46 21,8 C 20,0 C 18,3 C 78 % 1014,0 hPa 0,0 l/m 2 min 0 min 666 W/m 9,7 km/h (2 Bft) 97,83 %
24.05.2019 16:44 21,8 C 19,4 C 18,3 C 78 % 1014,0 hPa 0,0 l/m 2 min 0 min 706 W/m 9,7 km/h (2 Bft) 100,00 %
24.05.2019 16:42 21,8 C 19,4 C 18,3 C 77 % 1013,9 hPa 0,0 l/m 2 min 0 min 705 W/m 6,4 km/h (2 Bft) 100,00 %
24.05.2019 16:40 21,9 C 18,9 C 17,8 C 75 % 1014,0 hPa 0,0 l/m 2 min 0 min 709 W/m 0,0 km/h (0 Bft) 97,87 %
24.05.2019 16:38 21,9 C 17,8 C 17,2 C 74 % 1014,1 hPa 0,0 l/m 2 min 0 min 542 W/m 0,0 km/h (0 Bft) 100,00 %
24.05.2019 16:36 22,1 C 17,2 C 16,7 C 73 % 1014,1 hPa 0,0 l/m 0 min 0 min 202 W/m 0,0 km/h (0 Bft) 97,87 %
24.05.2019 16:34 22,1 C 17,2 C 16,7 C 72 % 1014,1 hPa 0,0 l/m 0 min 2 min 202 W/m 0,0 km/h (0 Bft) 95,65 %
24.05.2019 16:32 22,2 C 16,7 C 16,1 C 71 % 1014,1 hPa 0,0 l/m 0 min 2 min 174 W/m 3,2 km/h (1 Bft) 100,00 %
24.05.2019 16:30 22,4 C 16,7 C 16,1 C 71 % 1014,2 hPa 0,2 l/m 0 min 2 min 138 W/m 3,2 km/h (1 Bft) 100,00 %
24.05.2019 16:28 22,6 C 16,7 C 16,1 C 70 % 1014,2 hPa 0,0 l/m 0 min 2 min 118 W/m 3,2 km/h (1 Bft) 100,00 %
24.05.2019 16:26 22,8 C 17,2 C 16,1 C 68 % 1014,2 hPa 0,4 l/m 0 min 2 min 109 W/m 6,4 km/h (2 Bft) 97,87 %
24.05.2019 16:24 23,1 C 17,8 C 16,7 C 66 % 1014,3 hPa 0,2 l/m 0 min 2 min 107 W/m 16,1 km/h (3 Bft) 100,00 %
24.05.2019 16:22 23,4 C 20,0 C 18,3 C 62 % 1014,2 hPa 0,4 l/m 0 min 2 min 115 W/m 16,1 km/h (3 Bft) 100,00 %
24.05.2019 16:20 23,6 C 22,8 C 20,0 C 55 % 1014,2 hPa 0,0 l/m 0 min 2 min 128 W/m 12,9 km/h (3 Bft) 100,00 %
24.05.2019 16:18 23,7 C 23,3 C 22,2 C 53 % 1014,2 hPa 0,0 l/m 0 min 0 min 147 W/m 6,4 km/h (2 Bft) 97,87 %
24.05.2019 16:16 23,8 C 23,3 C 22,8 C 53 % 1014,1 hPa 0,0 l/m 0 min 0 min 165 W/m 9,7 km/h (2 Bft) 97,87 %
24.05.2019 16:14 23,8 C 23,3 C 22,8 C 53 % 1014,1 hPa 0,0 l/m 0 min 2 min 179 W/m 6,4 km/h (2 Bft) 97,87 %
24.05.2019 16:12 23,9 C 23,3 C 22,8 C 51 % 1014,1 hPa 0,0 l/m 0 min 0 min 184 W/m 6,4 km/h (2 Bft) 95,74 %
24.05.2019 16:10 23,9 C 23,9 C 22,8 C 53 % 1014,2 hPa 0,0 l/m 0 min 0 min 190 W/m 6,4 km/h (2 Bft) 97,83 %
24.05.2019 16:08 24,0 C 23,9 C 22,8 C 52 % 1014,2 hPa 0,0 l/m 0 min 0 min 202 W/m 9,7 km/h (2 Bft) 97,87 %
24.05.2019 16:06 24,1 C 23,9 C 22,8 C 53 % 1014,2 hPa 0,0 l/m 0 min 0 min 210 W/m 6,4 km/h (2 Bft) 95,74 %
24.05.2019 16:04 24,2 C 23,9 C 22,8 C 52 % 1014,2 hPa 0,0 l/m 0 min 0 min 216 W/m 6,4 km/h (2 Bft) 97,87 %
24.05.2019 16:02 24,2 C 23,9 C 22,8 C 51 % 1014,2 hPa 0,0 l/m 0 min 0 min 228 W/m 9,7 km/h (2 Bft) 97,87 %
24.05.2019 16:00 24,3 C 23,9 C 22,8 C 51 % 1014,2 hPa 0,0 l/m 0 min 0 min 208 W/m 16,1 km/h (3 Bft) 95,74 %
24.05.2019 15:58 24,4 C 23,9 C 22,8 C 51 % 1014,2 hPa 0,0 l/m 0 min 0 min 182 W/m 6,4 km/h (2 Bft) 97,83 %
24.05.2019 15:56 24,6 C 23,9 C 23,3 C 50 % 1014,2 hPa 0,0 l/m 0 min 0 min 169 W/m 12,9 km/h (3 Bft) 95,74 %
24.05.2019 15:54 24,7 C 23,9 C 23,3 C 51 % 1014,2 hPa 0,0 l/m 0 min 0 min 173 W/m 9,7 km/h (2 Bft) 93,62 %
24.05.2019 15:52 24,8 C 23,9 C 23,9 C 48 % 1014,2 hPa 0,0 l/m 0 min 0 min 178 W/m 9,7 km/h (2 Bft) 93,62 %
24.05.2019 15:50 24,8 C 24,4 C 23,9 C 48 % 1014,2 hPa 0,0 l/m 0 min 0 min 201 W/m 19,3 km/h (3 Bft) 95,74 %
24.05.2019 15:48 24,9 C 25,6 C 24,4 C 48 % 1014,3 hPa 0,0 l/m 0 min 0 min 231 W/m 19,3 km/h (3 Bft) 95,74 %
24.05.2019 15:46 24,9 C 26,7 C 25,0 C 49 % 1014,3 hPa 0,0 l/m 2 min 0 min 530 W/m 16,1 km/h (3 Bft) 93,48 %
24.05.2019 15:44 24,8 C 28,9 C 25,6 C 51 % 1014,3 hPa 0,0 l/m 2 min 0 min 885 W/m 6,4 km/h (2 Bft) 93,62 %
24.05.2019 15:42 24,6 C 28,9 C 25,6 C 52 % 1014,3 hPa 0,0 l/m 2 min 0 min 891 W/m 16,1 km/h (3 Bft) 95,74 %
24.05.2019 15:40 24,3 C 29,4 C 25,6 C 53 % 1014,3 hPa 0,0 l/m 2 min 0 min 876 W/m 9,7 km/h (2 Bft) 95,74 %
24.05.2019 15:38 24,1 C 29,4 C 25,6 C 54 % 1014,2 hPa 0,0 l/m 2 min 0 min 858 W/m 6,4 km/h (2 Bft) 95,74 %
24.05.2019 15:36 23,9 C 29,4 C 25,6 C 53 % 1014,3 hPa 0,0 l/m 2 min 0 min 906 W/m 12,9 km/h (3 Bft) 95,74 %
24.05.2019 15:34 23,7 C 30,0 C 25,0 C 52 % 1014,3 hPa 0,0 l/m 2 min 0 min 923 W/m 6,4 km/h (2 Bft) 97,83 %
24.05.2019 15:32 23,6 C 29,4 C 25,0 C 54 % 1014,2 hPa 0,0 l/m 2 min 0 min 929 W/m 12,9 km/h (3 Bft) 95,74 %
24.05.2019 15:30 23,4 C 28,3 C 25,0 C 55 % 1014,3 hPa 0,0 l/m 2 min 0 min 964 W/m 9,7 km/h (2 Bft) 97,87 %
24.05.2019 15:28 23,2 C 27,2 C 24,4 C 55 % 1014,3 hPa 0,0 l/m 2 min 0 min 988 W/m 6,4 km/h (2 Bft) 97,87 %
24.05.2019 15:26 23,2 C 25,0 C 23,3 C 53 % 1014,4 hPa 0,0 l/m 2 min 0 min 611 W/m 6,4 km/h (2 Bft) 97,87 %
24.05.2019 15:24 23,1 C 23,3 C 22,8 C 52 % 1014,4 hPa 0,0 l/m 0 min 0 min 306 W/m 6,4 km/h (2 Bft) 97,83 %
24.05.2019 15:22 23,2 C 22,8 C 22,2 C 54 % 1014,4 hPa 0,0 l/m 0 min 0 min 246 W/m 9,7 km/h (2 Bft) 97,87 %
24.05.2019 15:20 23,2 C 22,8 C 22,2 C 53 % 1014,4 hPa 0,0 l/m 0 min 0 min 211 W/m 6,4 km/h (2 Bft) 97,87 %
24.05.2019 15:18 23,2 C 22,2 C 22,2 C 53 % 1014,4 hPa 0,0 l/m 0 min 0 min 181 W/m 6,4 km/h (2 Bft) 97,87 %
24.05.2019 15:16 23,3 C 22,2 C 21,7 C 52 % 1014,4 hPa 0,0 l/m 0 min 0 min 155 W/m 3,2 km/h (1 Bft) 97,87 %
24.05.2019 15:14 23,3 C 22,2 C 21,7 C 53 % 1014,4 hPa 0,0 l/m 0 min 0 min 136 W/m 6,4 km/h (2 Bft) 97,87 %
24.05.2019 15:12 23,4 C 22,2 C 21,7 C 53 % 1014,5 hPa 0,0 l/m 0 min 0 min 126 W/m 6,4 km/h (2 Bft) 97,83 %
24.05.2019 15:10 23,6 C 22,2 C 21,7 C 52 % 1014,4 hPa 0,0 l/m 0 min 0 min 116 W/m 9,7 km/h (2 Bft) 97,62 %
24.05.2019 15:08 23,7 C 22,2 C 21,7 C 53 % 1014,4 hPa 0,0 l/m 0 min 0 min 109 W/m 6,4 km/h (2 Bft) 97,87 %
24.05.2019 15:06 23,8 C 22,2 C 22,2 C 53 % 1014,4 hPa 0,0 l/m 0 min 0 min 103 W/m 6,4 km/h (2 Bft) 97,87 %
24.05.2019 15:04 23,9 C 22,2 C 22,2 C 52 % 1014,4 hPa 0,0 l/m 0 min 0 min 98 W/m 6,4 km/h (2 Bft) 97,87 %
24.05.2019 15:02 24,1 C 22,2 C 22,2 C 51 % 1014,4 hPa 0,0 l/m 0 min 0 min 97 W/m 6,4 km/h (2 Bft) 97,87 %
24.05.2019 15:00 24,3 C 22,2 C 22,2 C 50 % 1014,4 hPa 0,0 l/m 0 min 0 min 100 W/m 6,4 km/h (2 Bft) 95,74 %
24.05.2019 14:58 24,4 C 22,8 C 22,8 C 49 % 1014,4 hPa 0,0 l/m 0 min 0 min 103 W/m 9,7 km/h (2 Bft) 100,00 %
24.05.2019 14:56 24,6 C 22,8 C 22,8 C 48 % 1014,4 hPa 0,0 l/m 0 min 0 min 109 W/m 16,1 km/h (3 Bft) 100,00 %
24.05.2019 14:54 24,8 C 23,3 C 23,3 C 48 % 1014,4 hPa 0,0 l/m 0 min 0 min 117 W/m 6,4 km/h (2 Bft) 100,00 %
24.05.2019 14:52 25,0 C 23,9 C 23,3 C 49 % 1014,4 hPa 0,0 l/m 0 min 0 min 130 W/m 6,4 km/h (2 Bft) 100,00 %
24.05.2019 14:50 25,1 C 23,9 C 23,9 C 48 % 1014,4 hPa 0,0 l/m 0 min 0 min 144 W/m 9,7 km/h (2 Bft) 100,00 %
24.05.2019 14:48 25,1 C 24,4 C 24,4 C 49 % 1014,4 hPa 0,0 l/m 0 min 0 min 165 W/m 9,7 km/h (2 Bft) 100,00 %
24.05.2019 14:46 25,2 C 24,4 C 24,4 C 47 % 1014,4 hPa 0,0 l/m 0 min 0 min 196 W/m 9,7 km/h (2 Bft) 100,00 %
24.05.2019 14:44 25,3 C 25,0 C 25,0 C 48 % 1014,4 hPa 0,0 l/m 0 min 0 min 236 W/m 12,9 km/h (3 Bft) 100,00 %
24.05.2019 14:42 25,4 C 26,1 C 25,6 C 46 % 1014,4 hPa 0,0 l/m 0 min 0 min 277 W/m 16,1 km/h (3 Bft) 100,00 %
24.05.2019 14:40 25,4 C 27,2 C 26,1 C 47 % 1014,4 hPa 0,0 l/m 2 min 0 min 640 W/m 12,9 km/h (3 Bft) 97,96 %
24.05.2019 14:38 25,4 C 28,9 C 27,2 C 48 % 1014,5 hPa 0,0 l/m 2 min 0 min 1034 W/m 16,1 km/h (3 Bft) 97,96 %
24.05.2019 14:36 25,3 C 28,3 C 26,7 C 49 % 1014,5 hPa 0,0 l/m 2 min 0 min 514 W/m 9,7 km/h (2 Bft) 97,83 %
24.05.2019 14:34 25,3 C 27,8 C 27,2 C 51 % 1014,5 hPa 0,0 l/m 0 min 0 min 343 W/m 6,4 km/h (2 Bft) 97,87 %
24.05.2019 14:32 25,2 C 28,3 C 28,3 C 50 % 1014,4 hPa 0,0 l/m 0 min 0 min 341 W/m 6,4 km/h (2 Bft) 97,87 %
24.05.2019 14:30 25,2 C 29,4 C 29,4 C 48 % 1014,4 hPa 0,0 l/m 2 min 0 min 987 W/m 12,9 km/h (3 Bft) 97,87 %
24.05.2019 14:28 25,1 C 30,6 C 31,1 C 49 % 1014,4 hPa 0,0 l/m 2 min 0 min 1072 W/m 9,7 km/h (2 Bft) 97,87 %
24.05.2019 14:26 25,1 C 30,0 C 30,6 C 50 % 1014,4 hPa 0,0 l/m 2 min 0 min 1054 W/m 6,4 km/h (2 Bft) 95,65 %
24.05.2019 14:24 25,0 C 28,9 C 30,0 C 49 % 1014,4 hPa 0,0 l/m 2 min 0 min 1082 W/m 9,7 km/h (2 Bft) 95,74 %
24.05.2019 14:22 24,9 C 27,8 C 28,3 C 48 % 1014,4 hPa 0,0 l/m 2 min 0 min 1006 W/m 22,5 km/h (4 Bft) 97,87 %
24.05.2019 14:20 25,0 C 25,6 C 26,1 C 47 % 1014,4 hPa 0,0 l/m 2 min 0 min 592 W/m 16,1 km/h (3 Bft) 97,56 %
24.05.2019 14:18 25,1 C 26,1 C 26,1 C 48 % 1014,4 hPa 0,0 l/m 2 min 0 min 458 W/m 19,3 km/h (3 Bft) 97,87 %
24.05.2019 14:16 25,2 C 26,1 C 26,7 C 48 % 1014,4 hPa 0,0 l/m 0 min 0 min 327 W/m 9,7 km/h (2 Bft) 97,87 %
24.05.2019 14:14 25,3 C 27,2 C 27,8 C 48 % 1014,5 hPa 0,0 l/m 0 min 0 min 306 W/m 9,7 km/h (2 Bft) 95,74 %
24.05.2019 14:12 25,2 C 28,9 C 30,6 C 51 % 1014,4 hPa 0,0 l/m 2 min 0 min 566 W/m 9,7 km/h (2 Bft) 97,83 %
24.05.2019 14:10 25,1 C 30,6 C 32,2 C 49 % 1014,3 hPa 0,0 l/m 2 min 0 min 1019 W/m 12,9 km/h (3 Bft) 97,87 %
24.05.2019 14:08 25,1 C 30,6 C 31,7 C 50 % 1014,3 hPa 0,0 l/m 2 min 0 min 1050 W/m 12,9 km/h (3 Bft) 97,87 %
24.05.2019 14:06 25,0 C 29,4 C 30,6 C 49 % 1014,4 hPa 0,0 l/m 2 min 0 min 1031 W/m 9,7 km/h (2 Bft) 97,87 %
24.05.2019 14:04 24,9 C 29,4 C 30,0 C 52 % 1014,4 hPa 0,0 l/m 2 min 0 min 462 W/m 6,4 km/h (2 Bft) 95,74 %
24.05.2019 14:02 24,8 C 27,2 C 27,8 C 48 % 1014,4 hPa 0,0 l/m 2 min 0 min 672 W/m 12,9 km/h (3 Bft) 97,87 %
24.05.2019 14:00 24,8 C 27,8 C 29,4 C 48 % 1014,4 hPa 0,0 l/m 2 min 0 min 1116 W/m 19,3 km/h (3 Bft) 97,83 %
24.05.2019 13:58 24,8 C 27,2 C 28,3 C 51 % 1014,5 hPa 0,0 l/m 0 min 0 min 397 W/m 6,4 km/h (2 Bft) 97,87 %
24.05.2019 13:56 24,8 C 26,7 C 27,2 C 48 % 1014,5 hPa 0,0 l/m 2 min 0 min 930 W/m 12,9 km/h (3 Bft) 97,87 %
24.05.2019 13:54 24,8 C 26,7 C 27,8 C 47 % 1014,4 hPa 0,0 l/m 0 min 0 min 413 W/m 25,7 km/h (4 Bft) 95,74 %
24.05.2019 13:52 24,9 C 26,7 C 27,2 C 48 % 1014,4 hPa 0,0 l/m 0 min 0 min 352 W/m 16,1 km/h (3 Bft) 97,87 %
24.05.2019 13:50 24,9 C 26,7 C 26,1 C 47 % 1014,4 hPa 0,0 l/m 0 min 0 min 353 W/m 12,9 km/h (3 Bft) 97,87 %
24.05.2019 13:48 24,9 C 28,9 C 29,4 C 50 % 1014,4 hPa 0,0 l/m 2 min 0 min 1075 W/m 16,1 km/h (3 Bft) 97,83 %
24.05.2019 13:46 24,9 C 29,4 C 30,6 C 49 % 1014,5 hPa 0,0 l/m 2 min 0 min 1073 W/m 16,1 km/h (3 Bft) 97,87 %
24.05.2019 13:44 24,8 C 29,4 C 30,0 C 50 % 1014,5 hPa 0,0 l/m 2 min 0 min 837 W/m 9,7 km/h (2 Bft) 97,87 %
24.05.2019 13:42 24,7 C 27,2 C 27,8 C 49 % 1014,5 hPa 0,0 l/m 0 min 0 min 399 W/m 19,3 km/h (3 Bft) 95,74 %
24.05.2019 13:40 24,8 C 26,7 C 26,7 C 49 % 1014,6 hPa 0,0 l/m 0 min 0 min 399 W/m 19,3 km/h (3 Bft) 95,74 %
24.05.2019 13:38 24,8 C 26,7 C 27,2 C 49 % 1014,5 hPa 0,0 l/m 0 min 0 min 386 W/m 9,7 km/h (2 Bft) 97,87 %
24.05.2019 13:36 24,8 C 27,8 C 28,3 C 51 % 1014,6 hPa 0,0 l/m 2 min 0 min 971 W/m 9,7 km/h (2 Bft) 97,83 %
24.05.2019 13:34 24,8 C 28,3 C 30,0 C 50 % 1014,5 hPa 0,0 l/m 2 min 0 min 1049 W/m 16,1 km/h (3 Bft) 95,74 %
24.05.2019 13:32 24,8 C 28,9 C 30,0 C 48 % 1014,6 hPa 0,0 l/m 2 min 0 min 947 W/m 22,5 km/h (4 Bft) 95,83 %
24.05.2019 13:30 24,8 C 28,9 C 29,4 C 48 % 1014,6 hPa 0,0 l/m 2 min 0 min 977 W/m 16,1 km/h (3 Bft) 97,87 %
24.05.2019 13:28 24,7 C 28,9 C 30,0 C 50 % 1014,6 hPa 0,0 l/m 2 min 0 min 1069 W/m 12,9 km/h (3 Bft) 97,87 %
24.05.2019 13:26 24,7 C 27,8 C 27,8 C 51 % 1014,5 hPa 0,0 l/m 2 min 0 min 634 W/m 9,7 km/h (2 Bft) 95,65 %
24.05.2019 13:24 24,7 C 25,6 C 25,6 C 50 % 1014,5 hPa 0,0 l/m 0 min 0 min 363 W/m 6,4 km/h (2 Bft) 95,74 %
24.05.2019 13:22 24,8 C 25,0 C 25,6 C 49 % 1014,5 hPa 0,0 l/m 0 min 0 min 319 W/m 9,7 km/h (2 Bft) 95,74 %
24.05.2019 13:20 24,9 C 25,0 C 25,0 C 48 % 1014,6 hPa 0,0 l/m 0 min 0 min 310 W/m 16,1 km/h (3 Bft) 97,87 %
24.05.2019 13:18 25,0 C 27,2 C 27,2 C 52 % 1014,5 hPa 0,0 l/m 0 min 0 min 324 W/m 9,7 km/h (2 Bft) 97,87 %
24.05.2019 13:16 24,9 C 28,9 C 28,3 C 51 % 1014,6 hPa 0,0 l/m 2 min 0 min 444 W/m 9,7 km/h (2 Bft) 97,87 %
24.05.2019 13:14 24,9 C 30,6 C 30,6 C 52 % 1014,5 hPa 0,0 l/m 2 min 0 min 991 W/m 12,9 km/h (3 Bft) 97,87 %
24.05.2019 13:12 24,8 C 31,1 C 31,1 C 50 % 1014,5 hPa 0,0 l/m 2 min 0 min 1092 W/m 12,9 km/h (3 Bft) 97,83 %
24.05.2019 13:10 24,7 C 30,0 C 30,0 C 50 % 1014,5 hPa 0,0 l/m 2 min 0 min 867 W/m 9,7 km/h (2 Bft) 97,92 %
24.05.2019 13:08 24,7 C 28,3 C 27,8 C 50 % 1014,5 hPa 0,0 l/m 2 min 0 min 497 W/m 9,7 km/h (2 Bft) 97,14 %
24.05.2019 13:06 24,7 C 28,3 C 27,8 C 49 % 1014,6 hPa 0,0 l/m 2 min 0 min 497 W/m 6,4 km/h (2 Bft) 96,61 %
24.05.2019 13:04 24,7 C 27,8 C 27,8 C 49 % 1014,7 hPa 0,0 l/m 2 min 0 min 497 W/m 9,7 km/h (2 Bft) 97,87 %
24.05.2019 13:02 24,7 C 26,1 C 26,1 C 49 % 1014,8 hPa 0,0 l/m 2 min 0 min 459 W/m 19,3 km/h (3 Bft) 100,00 %
24.05.2019 13:00 24,8 C 27,2 C 27,8 C 49 % 1014,7 hPa 0,0 l/m 2 min 0 min 530 W/m 16,1 km/h (3 Bft) 100,00 %
24.05.2019 12:58 24,8 C 28,3 C 27,8 C 49 % 1014,7 hPa 0,0 l/m 2 min 0 min 506 W/m 16,1 km/h (3 Bft) 100,00 %
24.05.2019 12:56 24,8 C 29,4 C 28,9 C 51 % 1014,7 hPa 0,0 l/m 2 min 0 min 1013 W/m 16,1 km/h (3 Bft) 100,00 %
24.05.2019 12:54 24,7 C 29,4 C 29,4 C 51 % 1014,8 hPa 0,0 l/m 2 min 0 min 1114 W/m 12,9 km/h (3 Bft) 100,00 %
24.05.2019 12:52 24,6 C 31,1 C 30,6 C 50 % 1014,7 hPa 0,0 l/m 2 min 0 min 1114 W/m 9,7 km/h (2 Bft) 95,74 %
24.05.2019 12:50 24,4 C 31,7 C 31,1 C 51 % 1014,6 hPa 0,0 l/m 2 min 0 min 1028 W/m 9,7 km/h (2 Bft) 100,00 %
24.05.2019 12:48 24,4 C 30,0 C 30,6 C 51 % 1014,7 hPa 0,0 l/m 2 min 0 min 998 W/m 9,7 km/h (2 Bft) 100,00 %
24.05.2019 12:46 24,3 C 28,9 C 29,4 C 50 % 1014,8 hPa 0,0 l/m 2 min 0 min 964 W/m 12,9 km/h (3 Bft) 97,83 %
24.05.2019 12:44 24,3 C 28,9 C 28,9 C 53 % 1014,8 hPa 0,0 l/m 2 min 0 min 641 W/m 12,9 km/h (3 Bft) 100,00 %
24.05.2019 12:42 24,3 C 27,2 C 27,8 C 50 % 1014,7 hPa 0,0 l/m 2 min 0 min 623 W/m 6,4 km/h (2 Bft) 100,00 %
24.05.2019 12:40 24,2 C 30,0 C 30,6 C 51 % 1014,7 hPa 0,0 l/m 2 min 0 min 911 W/m 6,4 km/h (2 Bft) 97,87 %
24.05.2019 12:38 24,2 C 29,4 C 30,0 C 50 % 1014,8 hPa 0,0 l/m 2 min 0 min 932 W/m 16,1 km/h (3 Bft) 97,87 %
24.05.2019 12:36 24,2 C 28,9 C 28,9 C 52 % 1014,8 hPa 0,0 l/m 2 min 0 min 768 W/m 12,9 km/h (3 Bft) 97,87 %
24.05.2019 12:34 24,2 C 27,2 C 27,2 C 50 % 1014,8 hPa 0,0 l/m 0 min 0 min 211 W/m 16,1 km/h (3 Bft) 97,83 %
24.05.2019 12:32 24,2 C 27,2 C 27,8 C 52 % 1014,9 hPa 0,0 l/m 0 min 0 min 226 W/m 12,9 km/h (3 Bft) 95,83 %
24.05.2019 12:30 24,2 C 26,7 C 27,2 C 50 % 1014,8 hPa 0,0 l/m 2 min 0 min 895 W/m 9,7 km/h (2 Bft) 97,87 %
24.05.2019 12:28 24,3 C 28,3 C 28,3 C 49 % 1014,8 hPa 0,0 l/m 2 min 0 min 896 W/m 16,1 km/h (3 Bft) 97,87 %
24.05.2019 12:26 24,3 C 27,8 C 27,8 C 49 % 1014,9 hPa 0,0 l/m 2 min 0 min 906 W/m 16,1 km/h (3 Bft) 97,87 %
24.05.2019 12:24 24,4 C 27,8 C 27,8 C 50 % 1014,8 hPa 0,0 l/m 2 min 0 min 785 W/m 12,9 km/h (3 Bft) 97,83 %
24.05.2019 12:22 24,5 C 26,1 C 26,7 C 51 % 1014,8 hPa 0,0 l/m 0 min 0 min 195 W/m 6,4 km/h (2 Bft) 97,87 %
24.05.2019 12:20 24,6 C 24,4 C 24,4 C 49 % 1014,8 hPa 0,0 l/m 0 min 0 min 187 W/m 9,7 km/h (2 Bft) 97,87 %
24.05.2019 12:18 24,6 C 25,0 C 25,6 C 50 % 1014,8 hPa 0,0 l/m 0 min 0 min 190 W/m 12,9 km/h (3 Bft) 95,74 %
24.05.2019 12:16 24,7 C 26,1 C 26,1 C 50 % 1014,8 hPa 0,0 l/m 0 min 0 min 190 W/m 9,7 km/h (2 Bft) 95,74 %
24.05.2019 12:14 24,8 C 25,6 C 25,6 C 49 % 1014,8 hPa 0,0 l/m 0 min 0 min 182 W/m 9,7 km/h (2 Bft) 97,87 %
24.05.2019 12:12 24,9 C 27,2 C 27,2 C 50 % 1014,9 hPa 0,0 l/m 0 min 0 min 319 W/m 9,7 km/h (2 Bft) 97,83 %
24.05.2019 12:10 24,9 C 28,3 C 28,9 C 51 % 1015,0 hPa 0,0 l/m 2 min 0 min 872 W/m 9,7 km/h (2 Bft) 97,87 %
24.05.2019 12:08 25,0 C 30,0 C 30,0 C 51 % 1015,0 hPa 0,0 l/m 4 min 0 min 870 W/m 9,7 km/h (2 Bft) 97,87 %
24.05.2019 12:04 25,0 C 31,7 C 31,1 C 50 % 1015,0 hPa 0,0 l/m 2 min 0 min 858 W/m 6,4 km/h (2 Bft) 93,62 %
24.05.2019 12:02 24,9 C 31,7 C 31,7 C 49 % 1014,9 hPa 0,0 l/m 2 min 0 min 876 W/m 6,4 km/h (2 Bft) 97,92 %
24.05.2019 12:00 24,8 C 31,1 C 31,7 C 50 % 1015,0 hPa 0,0 l/m 2 min 0 min 884 W/m 6,4 km/h (2 Bft) 97,83 %
_ Min-Zeit 06:14 05:32 05:30 14:42 18:30 - - - - 16:34 05:18
Minimum _ 7,7 C 6,1 C 6,1 C 46 % 1013,3 hPa - - - - 0,0 km/h (0 Bft) 87,50 %
_ Max-Zeit 14:38 12:02 14:10 08:24 09:36 16:22 12:08 16:14 14:00 13:54 12:42
Maximum _ 25,4 C 31,7 C 32,2 C 96 % 1018,2 hPa 0,4 l/m 4 min 2 min 1116 W/m 25,7 km/h
W-SW (4 Bft)
100,00 %
Durchschnitt _ 17,1 C 18,0 C 17,3 C 65 % 1015,7 hPa #1,2 l/m #1:52 h #0 min. 272 W/m 6,6 km/h (2 Bft) 97,62 %
© 2019 W. Hausmann